Observation data for Crowell on 06/15/2019      Previous  Date  Next       Current Mesonet Observations  Soil Data  Daily Summary Page  Observations in Plain Language
KCR1 150500Z 20014KT 27/19 A2979 RMK A01 T02720188  RH  060%=      5-min Rain = 0
KCR1 150501Z 20015KT 27/19 A2979 RMK A01 T02730188  RH  060%=      5-min Rain = 0
KCR1 150502Z 20016KT 27/19 A2979 RMK A01 T02740187  RH  059%=      5-min Rain = 0
KCR1 150503Z 20015KT 28/19 A2979 RMK A01 T02750187  RH  059%=      5-min Rain = 0
KCR1 150504Z 19016KT 28/19 A2979 RMK A01 T02760187  RH  059%=      5-min Rain = 0
KCR1 150505Z 19016KT 28/19 A2979 RMK A01 T02760188  RH  058%=      5-min Rain = 0
KCR1 150506Z 19017KT 28/19 A2979 RMK A01 T02770188  RH  058%=      5-min Rain = 0
KCR1 150507Z 19016KT 28/19 A2979 RMK A01 T02770188  RH  058%=      5-min Rain = 0
KCR1 150508Z 19015KT 28/19 A2979 RMK A01 T02770188  RH  058%=      5-min Rain = 0
KCR1 150509Z 18015KT 28/19 A2978 RMK A01 T02770188  RH  058%=      5-min Rain = 0
KCR1 150510Z 18017KT 28/19 A2978 RMK A01 T02780189  RH  058%=      5-min Rain = 0
KCR1 150511Z 19017KT 28/19 A2978 RMK A01 T02770189  RH  058%=      5-min Rain = 0
KCR1 150512Z 19017G22KT 28/19 A2978 RMK A01 T02770189  RH  059%=      5-min Rain = 0
KCR1 150513Z 19017KT 28/19 A2977 RMK A01 T02780190  RH  059%=      5-min Rain = 0
KCR1 150514Z 20020KT 28/19 A2977 RMK A01 T02780190  RH  059%=      5-min Rain = 0
KCR1 150515Z 20019KT 28/19 A2977 RMK A01 T02790190  RH  059%=      5-min Rain = 0
KCR1 150516Z 20019KT 28/19 A2977 RMK A01 T02800191  RH  058%=      5-min Rain = 0
KCR1 150517Z 20019KT 28/19 A2977 RMK A01 T02800190  RH  058%=      5-min Rain = 0
KCR1 150518Z 20018KT 28/19 A2977 RMK A01 T02810190  RH  058%=      5-min Rain = 0
KCR1 150519Z 20019KT 28/19 A2977 RMK A01 T02820191  RH  058%=      5-min Rain = 0
KCR1 150520Z 21019KT 28/19 A2977 RMK A01 T02820191  RH  058%=      5-min Rain = 0
KCR1 150521Z 21017KT 28/19 A2977 RMK A01 T02820191  RH  058%=      5-min Rain = 0
KCR1 150522Z 21016G21KT 28/19 A2977 RMK A01 T02820191  RH  058%=      5-min Rain = 0
KCR1 150523Z 21015KT 28/19 A2977 RMK A01 T02810191  RH  058%=      5-min Rain = 0
KCR1 150524Z 21017KT 28/19 A2976 RMK A01 T02810191  RH  058%=      5-min Rain = 0
KCR1 150525Z 20017KT 28/19 A2976 RMK A01 T02810191  RH  058%=      5-min Rain = 0
KCR1 150526Z 21018KT 28/19 A2976 RMK A01 T02810191  RH  058%=      5-min Rain = 0
KCR1 150527Z 20018G24KT 28/19 A2976 RMK A01 T02820191  RH  058%=      5-min Rain = 0
KCR1 150528Z 20018KT 28/19 A2976 RMK A01 T02820191  RH  058%=      5-min Rain = 0
KCR1 150529Z 20019G24KT 28/19 A2976 RMK A01 T02810191  RH  058%=      5-min Rain = 0
KCR1 150530Z 20017KT 28/19 A2976 RMK A01 T02810191  RH  058%=      5-min Rain = 0
KCR1 150531Z 20018KT 28/19 A2975 RMK A01 T02810191  RH  058%=      5-min Rain = 0
KCR1 150532Z 20016KT 28/19 A2975 RMK A01 T02800191  RH  058%=      5-min Rain = 0
KCR1 150533Z 20017KT 28/19 A2975 RMK A01 T02800191  RH  059%=      5-min Rain = 0
KCR1 150534Z 20017G22KT 28/19 A2975 RMK A01 T02790192  RH  059%=      5-min Rain = 0
KCR1 150535Z 20018G23KT 28/19 A2975 RMK A01 T02780192  RH  059%=      5-min Rain = 0
KCR1 150536Z 20017KT 28/19 A2975 RMK A01 T02780193  RH  060%=      5-min Rain = 0
KCR1 150537Z 20016KT 28/19 A2975 RMK A01 T02760192  RH  060%=      5-min Rain = 0
KCR1 150538Z 20017KT 28/19 A2975 RMK A01 T02760193  RH  061%=      5-min Rain = 0
KCR1 150539Z 20019KT 28/19 A2974 RMK A01 T02750192  RH  061%=      5-min Rain = 0
KCR1 150540Z 21018G24KT 28/19 A2975 RMK A01 T02750192  RH  061%=      5-min Rain = 0
KCR1 150541Z 21020KT 28/19 A2974 RMK A01 T02750192  RH  060%=      5-min Rain = 0
KCR1 150542Z 21019KT 28/19 A2974 RMK A01 T02750192  RH  060%=      5-min Rain = 0
KCR1 150543Z 21017KT 28/19 A2975 RMK A01 T02750192  RH  061%=      5-min Rain = 0
KCR1 150544Z 21016KT 28/19 A2975 RMK A01 T02750193  RH  061%=      5-min Rain = 0
KCR1 150545Z 21016KT 27/19 A2974 RMK A01 T02740193  RH  061%=      5-min Rain = 0
KCR1 150546Z 22020G25KT 27/19 A2974 RMK A01 T02730191  RH  061%=      5-min Rain = 0
KCR1 150547Z 21019KT 27/19 A2974 RMK A01 T02730190  RH  060%=      5-min Rain = 0
KCR1 150548Z 21021KT 27/19 A2974 RMK A01 T02740189  RH  060%=      5-min Rain = 0
KCR1 150549Z 21020G26KT 27/19 A2974 RMK A01 T02740190  RH  060%=      5-min Rain = 0
KCR1 150550Z 21020KT 27/19 A2974 RMK A01 T02740188  RH  060%=      5-min Rain = 0
KCR1 150551Z 22018G23KT 27/19 A2974 RMK A01 T02740187  RH  059%=      5-min Rain = 0
KCR1 150552Z 22018G23KT 27/19 A2975 RMK A01 T02740187  RH  059%=      5-min Rain = 0
KCR1 150553Z 22017KT 27/19 A2975 RMK A01 T02730187  RH  059%=      5-min Rain = 0
KCR1 150554Z 22017KT 27/19 A2976 RMK A01 T02720187  RH  059%=      5-min Rain = 0
KCR1 150555Z 22019G25KT 27/19 A2976 RMK A01 T02720186  RH  059%=      5-min Rain = 0
KCR1 150556Z 22015KT 27/19 A2976 RMK A01 T02720186  RH  059%=      5-min Rain = 0
KCR1 150557Z 22017KT 27/19 A2976 RMK A01 T02710186  RH  060%=      5-min Rain = 0
KCR1 150558Z 23013G18KT 27/19 A2976 RMK A01 T02710187  RH  060%=      5-min Rain = 0
KCR1 150559Z 22012KT 27/19 A2976 RMK A01 T02700187  RH  061%=      5-min Rain = 0
KCR1 150600Z 23012G17KT 27/19 A2976 RMK A01 T02680188  RH  061%=      5-min Rain = 0
KCR1 150601Z 22012KT 27/19 A2976 RMK A01 T02670188  RH  062%=      5-min Rain = 0
KCR1 150602Z 22012KT 27/19 A2976 RMK A01 T02660189  RH  063%=      5-min Rain = 0
KCR1 150603Z 23014G19KT 27/19 A2975 RMK A01 T02650189  RH  063%=      5-min Rain = 0
KCR1 150604Z 23013G18KT 27/19 A2975 RMK A01 T02650188  RH  062%=      5-min Rain = 0
KCR1 150605Z 22015G21KT 27/19 A2975 RMK A01 T02650187  RH  062%=      5-min Rain = 0
KCR1 150606Z 23017KT 27/19 A2975 RMK A01 T02650187  RH  062%=      5-min Rain = 0
KCR1 150607Z 23015G21KT 27/19 A2975 RMK A01 T02650187  RH  062%=      5-min Rain = 0
KCR1 150608Z 23014KT 26/19 A2975 RMK A01 T02640188  RH  063%=      5-min Rain = 0
KCR1 150609Z 22017G24KT 26/19 A2975 RMK A01 T02630189  RH  064%=      5-min Rain = 0
KCR1 150610Z 23017KT 26/19 A2975 RMK A01 T02620189  RH  064%=      5-min Rain = 0
KCR1 150611Z 23017G22KT 26/19 A2975 RMK A01 T02620189  RH  064%=      5-min Rain = 0
KCR1 150612Z 23013KT 26/19 A2975 RMK A01 T02620190  RH  065%=      5-min Rain = 0
KCR1 150613Z 22016KT 26/19 A2975 RMK A01 T02610190  RH  065%=      5-min Rain = 0
KCR1 150614Z 22019G24KT 26/19 A2975 RMK A01 T02610189  RH  064%=      5-min Rain = 0
KCR1 150615Z 22017KT 26/19 A2975 RMK A01 T02640189  RH  063%=      5-min Rain = 0
KCR1 150616Z 22017KT 27/19 A2975 RMK A01 T02650189  RH  063%=      5-min Rain = 0
KCR1 150617Z 22018KT 27/19 A2975 RMK A01 T02670189  RH  062%=      5-min Rain = 0
KCR1 150618Z 22021G28KT 27/19 A2975 RMK A01 T02680188  RH  062%=      5-min Rain = 0
KCR1 150619Z 22022G32KT 27/19 A2975 RMK A01 T02700187  RH  060%=      5-min Rain = 0
KCR1 150620Z 22023KT 27/19 A2975 RMK A01 T02720187  RH  060%=      5-min Rain = 0
KCR1 150621Z 22019G27KT 27/19 A2975 RMK A01 T02730187  RH  059%=      5-min Rain = 0
KCR1 150622Z 22021G27KT 27/19 A2975 RMK A01 T02730187  RH  059%=      5-min Rain = 0
KCR1 150623Z 21021KT 27/19 A2975 RMK A01 T02740187  RH  059%=      5-min Rain = 0
KCR1 150624Z 20017G22KT 28/19 A2975 RMK A01 T02750187  RH  059%=      5-min Rain = 0
KCR1 150625Z 20015G21KT 27/19 A2975 RMK A01 T02740188  RH  059%=      5-min Rain = 0
KCR1 150626Z 21013G19KT 27/19 A2975 RMK A01 T02740188  RH  060%=      5-min Rain = 0
KCR1 150627Z 22021G26KT 27/19 A2975 RMK A01 T02730187  RH  059%=      5-min Rain = 0
KCR1 150628Z 21020G27KT 28/19 A2975 RMK A01 T02760185  RH  058%=      5-min Rain = 0
KCR1 150629Z 21022G27KT 28/19 A2975 RMK A01 T02780185  RH  057%=      5-min Rain = 0
KCR1 150630Z 21019G24KT 28/19 A2975 RMK A01 T02790186  RH  057%=      5-min Rain = 0
KCR1 150631Z 22017G23KT 28/19 A2975 RMK A01 T02780188  RH  058%=      5-min Rain = 0
KCR1 150632Z 21018KT 28/19 A2975 RMK A01 T02760189  RH  059%=      5-min Rain = 0
KCR1 150633Z 21020G27KT 27/19 A2975 RMK A01 T02740189  RH  060%=      5-min Rain = 0
KCR1 150634Z 21023KT 27/19 A2975 RMK A01 T02730188  RH  059%=      5-min Rain = 0
KCR1 150635Z 21020KT 27/19 A2975 RMK A01 T02740187  RH  059%=      5-min Rain = 0
KCR1 150636Z 21022KT 27/19 A2975 RMK A01 T02740188  RH  059%=      5-min Rain = 0
KCR1 150637Z 20020KT 27/19 A2975 RMK A01 T02740188  RH  060%=      5-min Rain = 0
KCR1 150638Z 20017G22KT 27/19 A2975 RMK A01 T02730190  RH  060%=      5-min Rain = 0
KCR1 150639Z 21017KT 27/19 A2975 RMK A01 T02720190  RH  061%=      5-min Rain = 0
KCR1 150640Z 21016G21KT 27/19 A2975 RMK A01 T02700189  RH  061%=      5-min Rain = 0
KCR1 150641Z 21020G28KT 27/19 A2975 RMK A01 T02710188  RH  061%=      5-min Rain = 0
KCR1 150642Z 21023G29KT 27/19 A2975 RMK A01 T02720186  RH  060%=      5-min Rain = 0
KCR1 150643Z 21019G24KT 27/19 A2975 RMK A01 T02730187  RH  059%=      5-min Rain = 0
KCR1 150644Z 21018G24KT 27/19 A2975 RMK A01 T02730188  RH  059%=      5-min Rain = 0
KCR1 150645Z 21021KT 27/19 A2975 RMK A01 T02730187  RH  059%=      5-min Rain = 0
KCR1 150646Z 21020KT 27/19 A2975 RMK A01 T02730186  RH  059%=      5-min Rain = 0
KCR1 150647Z 21019G24KT 27/19 A2976 RMK A01 T02740186  RH  059%=      5-min Rain = 0
KCR1 150648Z 21018G25KT 27/19 A2976 RMK A01 T02740188  RH  059%=      5-min Rain = 0
KCR1 150649Z 22016KT 27/19 A2976 RMK A01 T02720189  RH  061%=      5-min Rain = 0
KCR1 150650Z 21016G22KT 27/19 A2976 RMK A01 T02700190  RH  061%=      5-min Rain = 0
KCR1 150651Z 21017G22KT 27/19 A2976 RMK A01 T02680190  RH  062%=      5-min Rain = 0
KCR1 150652Z 21015KT 27/19 A2976 RMK A01 T02680190  RH  062%=      5-min Rain = 0
KCR1 150653Z 21015G20KT 27/19 A2976 RMK A01 T02680188  RH  062%=      5-min Rain = 0
KCR1 150654Z 20017G22KT 27/19 A2976 RMK A01 T02680187  RH  061%=      5-min Rain = 0
KCR1 150655Z 21014G19KT 27/19 A2976 RMK A01 T02700187  RH  061%=      5-min Rain = 0
KCR1 150656Z 21013KT 27/19 A2976 RMK A01 T02690188  RH  061%=      5-min Rain = 0
KCR1 150657Z 22013G18KT 27/19 A2976 RMK A01 T02680189  RH  062%=      5-min Rain = 0
KCR1 150658Z 21017KT 27/19 A2976 RMK A01 T02670187  RH  061%=      5-min Rain = 0
KCR1 150659Z 21016G21KT 27/19 A2976 RMK A01 T02680186  RH  061%=      5-min Rain = 0
KCR1 150700Z 21014KT 27/19 A2976 RMK A01 T02700187  RH  060%=      5-min Rain = 0
KCR1 150701Z 21014G19KT 27/19 A2976 RMK A01 T02700187  RH  060%=      5-min Rain = 0
KCR1 150702Z 21016KT 27/19 A2976 RMK A01 T02690186  RH  060%=      5-min Rain = 0
KCR1 150703Z 21016KT 27/19 A2976 RMK A01 T02690186  RH  060%=      5-min Rain = 0
KCR1 150704Z 21017KT 27/19 A2976 RMK A01 T02700185  RH  060%=      5-min Rain = 0
KCR1 150705Z 21014KT 27/19 A2976 RMK A01 T02710186  RH  059%=      5-min Rain = 0
KCR1 150706Z 21015KT 27/19 A2976 RMK A01 T02710186  RH  060%=      5-min Rain = 0
KCR1 150707Z 21015KT 27/19 A2976 RMK A01 T02710186  RH  060%=      5-min Rain = 0
KCR1 150708Z 21016KT 27/19 A2976 RMK A01 T02700185  RH  060%=      5-min Rain = 0
KCR1 150709Z 21015KT 27/19 A2976 RMK A01 T02710185  RH  060%=      5-min Rain = 0
KCR1 150710Z 21015KT 27/19 A2976 RMK A01 T02700185  RH  060%=      5-min Rain = 0
KCR1 150711Z 21016G21KT 27/19 A2976 RMK A01 T02710186  RH  060%=      5-min Rain = 0
KCR1 150712Z 21015KT 27/19 A2976 RMK A01 T02710186  RH  060%=      5-min Rain = 0
KCR1 150713Z 20017KT 27/19 A2976 RMK A01 T02710186  RH  060%=      5-min Rain = 0
KCR1 150714Z 20016KT 27/19 A2976 RMK A01 T02700186  RH  060%=      5-min Rain = 0
KCR1 150715Z 20015KT 27/19 A2976 RMK A01 T02700186  RH  060%=      5-min Rain = 0
KCR1 150716Z 20017KT 27/19 A2976 RMK A01 T02700186  RH  060%=      5-min Rain = 0
KCR1 150717Z 20016G21KT 27/19 A2976 RMK A01 T02700186  RH  060%=      5-min Rain = 0
KCR1 150718Z 20015KT 27/19 A2976 RMK A01 T02700186  RH  060%=      5-min Rain = 0
KCR1 150719Z 20016KT 27/19 A2976 RMK A01 T02690186  RH  060%=      5-min Rain = 0
KCR1 150720Z 21015KT 27/19 A2976 RMK A01 T02690187  RH  061%=      5-min Rain = 0
KCR1 150721Z 21015KT 27/19 A2976 RMK A01 T02680187  RH  061%=      5-min Rain = 0
KCR1 150722Z 20015KT 27/19 A2976 RMK A01 T02680186  RH  061%=      5-min Rain = 0
KCR1 150723Z 21014KT 27/19 A2976 RMK A01 T02670187  RH  061%=      5-min Rain = 0
KCR1 150724Z 21015G20KT 27/19 A2976 RMK A01 T02670187  RH  062%=      5-min Rain = 0
KCR1 150725Z 21014KT 27/19 A2976 RMK A01 T02660187  RH  062%=      5-min Rain = 0
KCR1 150726Z 21014KT 27/19 A2976 RMK A01 T02660187  RH  062%=      5-min Rain = 0
KCR1 150727Z 21014KT 27/19 A2976 RMK A01 T02660187  RH  062%=      5-min Rain = 0
KCR1 150728Z 21016KT 27/19 A2976 RMK A01 T02650185  RH  062%=      5-min Rain = 0
KCR1 150729Z 21017KT 27/18 A2976 RMK A01 T02660184  RH  061%=      5-min Rain = 0
KCR1 150730Z 21016KT 27/18 A2976 RMK A01 T02680184  RH  060%=      5-min Rain = 0
KCR1 150731Z 21016KT 27/18 A2976 RMK A01 T02680184  RH  060%=      5-min Rain = 0
KCR1 150732Z 21013KT 27/18 A2976 RMK A01 T02690184  RH  060%=      5-min Rain = 0
KCR1 150733Z 21014KT 27/18 A2976 RMK A01 T02690184  RH  060%=      5-min Rain = 0
KCR1 150734Z 21016KT 27/18 A2976 RMK A01 T02690184  RH  060%=      5-min Rain = 0
KCR1 150735Z 20015KT 27/18 A2976 RMK A01 T02690184  RH  060%=      5-min Rain = 0
KCR1 150736Z 21016KT 27/18 A2976 RMK A01 T02680184  RH  060%=      5-min Rain = 0
KCR1 150737Z 21014KT 27/19 A2976 RMK A01 T02680185  RH  060%=      5-min Rain = 0
KCR1 150738Z 21015KT 27/18 A2976 RMK A01 T02670184  RH  060%=      5-min Rain = 0
KCR1 150739Z 21013KT 27/19 A2976 RMK A01 T02670185  RH  061%=      5-min Rain = 0
KCR1 150740Z 21013KT 27/19 A2976 RMK A01 T02660185  RH  061%=      5-min Rain = 0
KCR1 150741Z 21014KT 27/19 A2976 RMK A01 T02660185  RH  061%=      5-min Rain = 0
KCR1 150742Z 21014KT 27/18 A2976 RMK A01 T02650184  RH  061%=      5-min Rain = 0
KCR1 150743Z 21014KT 27/18 A2976 RMK A01 T02650184  RH  061%=      5-min Rain = 0
KCR1 150744Z 20013KT 27/19 A2976 RMK A01 T02650185  RH  061%=      5-min Rain = 0
KCR1 150745Z 21014KT 26/18 A2976 RMK A01 T02640184  RH  061%=      5-min Rain = 0
KCR1 150746Z 21014KT 26/18 A2976 RMK A01 T02640184  RH  061%=      5-min Rain = 0
KCR1 150747Z 21013KT 26/18 A2976 RMK A01 T02640184  RH  061%=      5-min Rain = 0
KCR1 150748Z 21013KT 26/18 A2976 RMK A01 T02640184  RH  061%=      5-min Rain = 0
KCR1 150749Z 21012KT 26/18 A2976 RMK A01 T02630184  RH  062%=      5-min Rain = 0
KCR1 150750Z 21012KT 26/18 A2976 RMK A01 T02630184  RH  062%=      5-min Rain = 0
KCR1 150751Z 21013KT 26/18 A2976 RMK A01 T02620184  RH  062%=      5-min Rain = 0
KCR1 150752Z 20012KT 26/18 A2976 RMK A01 T02620184  RH  062%=      5-min Rain = 0
KCR1 150753Z 20014KT 26/18 A2976 RMK A01 T02620184  RH  062%=      5-min Rain = 0
KCR1 150754Z 21012KT 26/18 A2976 RMK A01 T02620184  RH  062%=      5-min Rain = 0
KCR1 150755Z 20014KT 26/18 A2976 RMK A01 T02620184  RH  062%=      5-min Rain = 0
KCR1 150756Z 20013KT 26/18 A2976 RMK A01 T02620184  RH  062%=      5-min Rain = 0
KCR1 150757Z 20012KT 26/18 A2976 RMK A01 T02610184  RH  062%=      5-min Rain = 0
KCR1 150758Z 20015KT 26/18 A2976 RMK A01 T02600183  RH  062%=      5-min Rain = 0
KCR1 150759Z 20013KT 26/18 A2976 RMK A01 T02600183  RH  062%=      5-min Rain = 0
KCR1 150800Z 20015KT 26/18 A2975 RMK A01 T02610183  RH  062%=      5-min Rain = 0
KCR1 150801Z 20013KT 26/18 A2976 RMK A01 T02610182  RH  062%=      5-min Rain = 0
KCR1 150802Z 20013KT 26/18 A2976 RMK A01 T02610182  RH  062%=      5-min Rain = 0
KCR1 150803Z 20013KT 26/18 A2976 RMK A01 T02610182  RH  062%=      5-min Rain = 0
KCR1 150804Z 20013KT 26/18 A2975 RMK A01 T02600182  RH  062%=      5-min Rain = 0
KCR1 150805Z 20014KT 26/18 A2975 RMK A01 T02600182  RH  062%=      5-min Rain = 0
KCR1 150806Z 20013KT 26/18 A2976 RMK A01 T02600182  RH  062%=      5-min Rain = 0
KCR1 150807Z 20013KT 26/18 A2976 RMK A01 T02600182  RH  062%=      5-min Rain = 0
KCR1 150808Z 20012KT 26/18 A2976 RMK A01 T02600182  RH  062%=      5-min Rain = 0
KCR1 150809Z 20013KT 26/18 A2976 RMK A01 T02590182  RH  062%=      5-min Rain = 0
KCR1 150810Z 20013KT 26/18 A2976 RMK A01 T02590182  RH  062%=      5-min Rain = 0
KCR1 150811Z 20013KT 26/18 A2976 RMK A01 T02590182  RH  062%=      5-min Rain = 0
KCR1 150812Z 20012KT 26/18 A2976 RMK A01 T02590182  RH  063%=      5-min Rain = 0
KCR1 150813Z 20011KT 26/18 A2976 RMK A01 T02580182  RH  063%=      5-min Rain = 0
KCR1 150814Z 20011KT 26/18 A2976 RMK A01 T02580182  RH  063%=      5-min Rain = 0
KCR1 150815Z 20011KT 26/18 A2976 RMK A01 T02570182  RH  063%=      5-min Rain = 0
KCR1 150816Z 20011KT 26/18 A2976 RMK A01 T02560182  RH  063%=      5-min Rain = 0
KCR1 150817Z 20012KT 26/18 A2976 RMK A01 T02560182  RH  064%=      5-min Rain = 0
KCR1 150818Z 20011KT 26/18 A2976 RMK A01 T02550182  RH  064%=      5-min Rain = 0
KCR1 150819Z 20011KT 26/18 A2975 RMK A01 T02550182  RH  064%=      5-min Rain = 0
KCR1 150820Z 19011KT 25/18 A2975 RMK A01 T02540182  RH  064%=      5-min Rain = 0
KCR1 150821Z 19012KT 26/18 A2975 RMK A01 T02550182  RH  064%=      5-min Rain = 0
KCR1 150822Z 19011KT 26/18 A2975 RMK A01 T02550182  RH  064%=      5-min Rain = 0
KCR1 150823Z 19011KT 25/18 A2975 RMK A01 T02540182  RH  064%=      5-min Rain = 0
KCR1 150824Z 19012KT 25/18 A2975 RMK A01 T02540182  RH  064%=      5-min Rain = 0
KCR1 150825Z 19011KT 25/18 A2975 RMK A01 T02540182  RH  064%=      5-min Rain = 0
KCR1 150826Z 19012KT 25/18 A2975 RMK A01 T02530181  RH  064%=      5-min Rain = 0
KCR1 150827Z 19011KT 25/18 A2975 RMK A01 T02530181  RH  064%=      5-min Rain = 0
KCR1 150828Z 19013KT 25/18 A2975 RMK A01 T02530181  RH  064%=      5-min Rain = 0
KCR1 150829Z 19012KT 25/18 A2975 RMK A01 T02540181  RH  064%=      5-min Rain = 0
KCR1 150830Z 19011KT 25/18 A2975 RMK A01 T02540181  RH  064%=      5-min Rain = 0
KCR1 150831Z 19012KT 25/18 A2975 RMK A01 T02540181  RH  064%=      5-min Rain = 0
KCR1 150832Z 19012KT 25/18 A2975 RMK A01 T02540181  RH  064%=      5-min Rain = 0
KCR1 150833Z 19012KT 25/18 A2975 RMK A01 T02540181  RH  064%=      5-min Rain = 0
KCR1 150834Z 19011KT 25/18 A2975 RMK A01 T02540182  RH  064%=      5-min Rain = 0
KCR1 150835Z 19011KT 25/18 A2975 RMK A01 T02530181  RH  064%=      5-min Rain = 0
KCR1 150836Z 19012KT 25/18 A2975 RMK A01 T02530182  RH  065%=      5-min Rain = 0
KCR1 150837Z 19013KT 25/18 A2975 RMK A01 T02530181  RH  064%=      5-min Rain = 0
KCR1 150838Z 19013KT 25/18 A2975 RMK A01 T02530181  RH  064%=      5-min Rain = 0
KCR1 150839Z 19012KT 25/18 A2975 RMK A01 T02530181  RH  064%=      5-min Rain = 0
KCR1 150840Z 19013KT 25/18 A2975 RMK A01 T02530181  RH  065%=      5-min Rain = 0
KCR1 150841Z 19014KT 25/18 A2975 RMK A01 T02530181  RH  064%=      5-min Rain = 0
KCR1 150842Z 19013KT 25/18 A2975 RMK A01 T02540181  RH  064%=      5-min Rain = 0
KCR1 150843Z 19013KT 25/18 A2975 RMK A01 T02540181  RH  064%=      5-min Rain = 0
KCR1 150844Z 19012KT 25/18 A2975 RMK A01 T02540181  RH  064%=      5-min Rain = 0
KCR1 150845Z 19014KT 25/18 A2975 RMK A01 T02530181  RH  064%=      5-min Rain = 0
KCR1 150846Z 19013KT 25/18 A2975 RMK A01 T02540182  RH  064%=      5-min Rain = 0
KCR1 150847Z 19012KT 25/18 A2975 RMK A01 T02530181  RH  065%=      5-min Rain = 0
KCR1 150848Z 18011KT 25/18 A2975 RMK A01 T02520182  RH  065%=      5-min Rain = 0
KCR1 150849Z 19014KT 25/18 A2975 RMK A01 T02510182  RH  065%=      5-min Rain = 0
KCR1 150850Z 19014KT 25/18 A2975 RMK A01 T02510182  RH  065%=      5-min Rain = 0
KCR1 150851Z 19013KT 25/18 A2975 RMK A01 T02510182  RH  065%=      5-min Rain = 0
KCR1 150852Z 19012KT 25/18 A2975 RMK A01 T02520182  RH  065%=      5-min Rain = 0
KCR1 150853Z 19011KT 25/18 A2975 RMK A01 T02510182  RH  065%=      5-min Rain = 0
KCR1 150854Z 19013KT 25/18 A2975 RMK A01 T02510182  RH  066%=      5-min Rain = 0
KCR1 150855Z 19012KT 25/18 A2975 RMK A01 T02500182  RH  066%=      5-min Rain = 0
KCR1 150856Z 19012KT 25/18 A2975 RMK A01 T02500182  RH  066%=      5-min Rain = 0
KCR1 150857Z 19013KT 25/18 A2975 RMK A01 T02500182  RH  066%=      5-min Rain = 0
KCR1 150858Z 18012KT 25/18 A2974 RMK A01 T02500182  RH  066%=      5-min Rain = 0
KCR1 150859Z 19013KT 25/18 A2974 RMK A01 T02490182  RH  066%=      5-min Rain = 0
KCR1 150900Z 18013KT 25/18 A2974 RMK A01 T02500182  RH  066%=      5-min Rain = 0
KCR1 150901Z 19012KT 25/18 A2974 RMK A01 T02490182  RH  066%=      5-min Rain = 0
KCR1 150902Z 19011KT 25/18 A2974 RMK A01 T02490182  RH  066%=      5-min Rain = 0
KCR1 150903Z 18013KT 25/18 A2974 RMK A01 T02490182  RH  066%=      5-min Rain = 0
KCR1 150904Z 19012KT 25/18 A2974 RMK A01 T02490182  RH  066%=      5-min Rain = 0
KCR1 150905Z 19014KT 25/18 A2974 RMK A01 T02490182  RH  067%=      5-min Rain = 0
KCR1 150906Z 19011KT 25/18 A2974 RMK A01 T02480182  RH  067%=      5-min Rain = 0
KCR1 150907Z 18013KT 25/18 A2974 RMK A01 T02480182  RH  067%=      5-min Rain = 0
KCR1 150908Z 18012KT 25/18 A2974 RMK A01 T02480182  RH  067%=      5-min Rain = 0
KCR1 150909Z 18012KT 25/18 A2974 RMK A01 T02480182  RH  067%=      5-min Rain = 0
KCR1 150910Z 18011KT 25/18 A2974 RMK A01 T02470182  RH  067%=      5-min Rain = 0
KCR1 150911Z 18012KT 25/18 A2974 RMK A01 T02470182  RH  067%=      5-min Rain = 0
KCR1 150912Z 18012KT 25/18 A2974 RMK A01 T02470182  RH  067%=      5-min Rain = 0
KCR1 150913Z 18011KT 25/18 A2974 RMK A01 T02470183  RH  067%=      5-min Rain = 0
KCR1 150914Z 18011KT 25/18 A2974 RMK A01 T02460182  RH  068%=      5-min Rain = 0
KCR1 150915Z 18012KT 25/18 A2974 RMK A01 T02460182  RH  068%=      5-min Rain = 0
KCR1 150916Z 18012KT 25/18 A2974 RMK A01 T02450182  RH  068%=      5-min Rain = 0
KCR1 150917Z 18011KT 25/18 A2974 RMK A01 T02450182  RH  068%=      5-min Rain = 0
KCR1 150918Z 18012KT 25/18 A2974 RMK A01 T02450182  RH  068%=      5-min Rain = 0
KCR1 150919Z 18010KT 24/18 A2974 RMK A01 T02440182  RH  068%=      5-min Rain = 0
KCR1 150920Z 18011KT 24/18 A2974 RMK A01 T02440183  RH  069%=      5-min Rain = 0
KCR1 150921Z 18011KT 24/18 A2974 RMK A01 T02430182  RH  069%=      5-min Rain = 0
KCR1 150922Z 18011KT 24/18 A2974 RMK A01 T02430182  RH  069%=      5-min Rain = 0
KCR1 150923Z 19012KT 24/18 A2974 RMK A01 T02430182  RH  069%=      5-min Rain = 0
KCR1 150924Z 18012KT 24/18 A2974 RMK A01 T02430182  RH  069%=      5-min Rain = 0
KCR1 150925Z 18011KT 24/18 A2974 RMK A01 T02430182  RH  069%=      5-min Rain = 0
KCR1 150926Z 18011KT 24/18 A2974 RMK A01 T02430182  RH  069%=      5-min Rain = 0
KCR1 150927Z 18013KT 24/18 A2974 RMK A01 T02420182  RH  069%=      5-min Rain = 0
KCR1 150928Z 18011KT 24/18 A2974 RMK A01 T02420182  RH  069%=      5-min Rain = 0
KCR1 150929Z 18012KT 24/18 A2974 RMK A01 T02420182  RH  069%=      5-min Rain = 0
KCR1 150930Z 18012KT 24/18 A2974 RMK A01 T02420182  RH  069%=      5-min Rain = 0
KCR1 150931Z 18012KT 24/18 A2974 RMK A01 T02420182  RH  069%=      5-min Rain = 0
KCR1 150932Z 18012KT 24/18 A2974 RMK A01 T02420182  RH  069%=      5-min Rain = 0
KCR1 150933Z 18011KT 24/18 A2974 RMK A01 T02420182  RH  069%=      5-min Rain = 0
KCR1 150934Z 18012KT 24/18 A2974 RMK A01 T02410182  RH  070%=      5-min Rain = 0
KCR1 150935Z 18012KT 24/18 A2974 RMK A01 T02400182  RH  070%=      5-min Rain = 0
KCR1 150936Z 18013KT 24/18 A2974 RMK A01 T02410182  RH  070%=      5-min Rain = 0
KCR1 150937Z 18012KT 24/18 A2974 RMK A01 T02420182  RH  069%=      5-min Rain = 0
KCR1 150938Z 18012KT 24/18 A2974 RMK A01 T02420182  RH  069%=      5-min Rain = 0
KCR1 150939Z 18012KT 24/18 A2974 RMK A01 T02420182  RH  069%=      5-min Rain = 0
KCR1 150940Z 18012KT 24/18 A2974 RMK A01 T02420183  RH  069%=      5-min Rain = 0
KCR1 150941Z 19012KT 24/18 A2974 RMK A01 T02410183  RH  070%=      5-min Rain = 0
KCR1 150942Z 19011KT 24/18 A2974 RMK A01 T02410183  RH  070%=      5-min Rain = 0
KCR1 150943Z 18012KT 24/18 A2974 RMK A01 T02400183  RH  070%=      5-min Rain = 0
KCR1 150944Z 18012KT 24/18 A2974 RMK A01 T02400182  RH  070%=      5-min Rain = 0
KCR1 150945Z 18011KT 24/18 A2974 RMK A01 T02400183  RH  070%=      5-min Rain = 0
KCR1 150946Z 18013KT 24/18 A2974 RMK A01 T02400183  RH  070%=      5-min Rain = 0
KCR1 150947Z 18013KT 24/18 A2974 RMK A01 T02400183  RH  070%=      5-min Rain = 0
KCR1 150948Z 18013KT 24/18 A2974 RMK A01 T02400183  RH  070%=      5-min Rain = 0
KCR1 150949Z 18012KT 24/18 A2974 RMK A01 T02410183  RH  070%=      5-min Rain = 0
KCR1 150950Z 18012KT 24/18 A2974 RMK A01 T02400183  RH  070%=      5-min Rain = 0
KCR1 150951Z 18012KT 24/18 A2974 RMK A01 T02400183  RH  070%=      5-min Rain = 0
KCR1 150952Z 19012KT 24/18 A2974 RMK A01 T02400183  RH  071%=      5-min Rain = 0
KCR1 150953Z 19013KT 24/18 A2974 RMK A01 T02400183  RH  071%=      5-min Rain = 0
KCR1 150954Z 19013KT 24/18 A2974 RMK A01 T02400184  RH  071%=      5-min Rain = 0
KCR1 150955Z 19012KT 24/18 A2974 RMK A01 T02390183  RH  071%=      5-min Rain = 0
KCR1 150956Z 19013KT 24/18 A2974 RMK A01 T02390183  RH  071%=      5-min Rain = 0
KCR1 150957Z 19013KT 24/18 A2974 RMK A01 T02390183  RH  071%=      5-min Rain = 0
KCR1 150958Z 19013KT 24/18 A2974 RMK A01 T02390183  RH  071%=      5-min Rain = 0
KCR1 150959Z 19013KT 24/18 A2974 RMK A01 T02380183  RH  071%=      5-min Rain = 0
KCR1 151000Z 19011KT 24/18 A2974 RMK A01 T02380184  RH  072%=      5-min Rain = 0
KCR1 151001Z 19012KT 24/18 A2974 RMK A01 T02370184  RH  072%=      5-min Rain = 0
KCR1 151002Z 19013KT 24/18 A2974 RMK A01 T02370183  RH  072%=      5-min Rain = 0
KCR1 151003Z 19013KT 24/18 A2974 RMK A01 T02370183  RH  072%=      5-min Rain = 0
KCR1 151004Z 19013KT 24/18 A2974 RMK A01 T02370184  RH  072%=      5-min Rain = 0
KCR1 151005Z 19013KT 24/18 A2974 RMK A01 T02370184  RH  072%=      5-min Rain = 0
KCR1 151006Z 19013KT 24/18 A2974 RMK A01 T02370184  RH  072%=      5-min Rain = 0
KCR1 151007Z 19013KT 24/18 A2974 RMK A01 T02370184  RH  072%=      5-min Rain = 0
KCR1 151008Z 19013KT 24/18 A2974 RMK A01 T02360184  RH  072%=      5-min Rain = 0
KCR1 151009Z 19013KT 24/18 A2974 RMK A01 T02360184  RH  072%=      5-min Rain = 0
KCR1 151010Z 19012KT 24/18 A2974 RMK A01 T02360184  RH  073%=      5-min Rain = 0
KCR1 151011Z 19012KT 24/18 A2974 RMK A01 T02360184  RH  073%=      5-min Rain = 0
KCR1 151012Z 19012KT 24/18 A2974 RMK A01 T02350184  RH  073%=      5-min Rain = 0
KCR1 151013Z 19013KT 24/18 A2974 RMK A01 T02350184  RH  073%=      5-min Rain = 0
KCR1 151014Z 19011KT 24/18 A2974 RMK A01 T02350184  RH  073%=      5-min Rain = 0
KCR1 151015Z 19013KT 24/18 A2974 RMK A01 T02350184  RH  073%=      5-min Rain = 0
KCR1 151016Z 19011KT 24/18 A2974 RMK A01 T02350184  RH  073%=      5-min Rain = 0
KCR1 151017Z 18011KT 24/18 A2974 RMK A01 T02350184  RH  073%=      5-min Rain = 0
KCR1 151018Z 19012KT 23/18 A2974 RMK A01 T02340184  RH  074%=      5-min Rain = 0
KCR1 151019Z 19012KT 23/18 A2974 RMK A01 T02330184  RH  074%=      5-min Rain = 0
KCR1 151020Z 18013KT 23/18 A2973 RMK A01 T02330184  RH  074%=      5-min Rain = 0
KCR1 151021Z 18012KT 23/18 A2973 RMK A01 T02340184  RH  074%=      5-min Rain = 0
KCR1 151022Z 18012KT 23/18 A2974 RMK A01 T02340184  RH  074%=      5-min Rain = 0
KCR1 151023Z 18012KT 23/18 A2974 RMK A01 T02340184  RH  074%=      5-min Rain = 0
KCR1 151024Z 18012KT 23/19 A2974 RMK A01 T02340185  RH  074%=      5-min Rain = 0
KCR1 151025Z 19011KT 23/19 A2974 RMK A01 T02340185  RH  074%=      5-min Rain = 0
KCR1 151026Z 19013KT 23/18 A2973 RMK A01 T02330184  RH  074%=      5-min Rain = 0
KCR1 151027Z 18012KT 23/18 A2973 RMK A01 T02330184  RH  074%=      5-min Rain = 0
KCR1 151028Z 18011KT 23/18 A2973 RMK A01 T02330184  RH  074%=      5-min Rain = 0
KCR1 151029Z 18010KT 23/19 A2973 RMK A01 T02320185  RH  075%=      5-min Rain = 0
KCR1 151030Z 18011KT 23/19 A2973 RMK A01 T02310185  RH  075%=      5-min Rain = 0
KCR1 151031Z 18012KT 23/18 A2973 RMK A01 T02310184  RH  075%=      5-min Rain = 0
KCR1 151032Z 18012KT 23/19 A2973 RMK A01 T02310185  RH  075%=      5-min Rain = 0
KCR1 151033Z 18011KT 23/19 A2973 RMK A01 T02310185  RH  075%=      5-min Rain = 0
KCR1 151034Z 18011KT 23/19 A2973 RMK A01 T02310185  RH  075%=      5-min Rain = 0
KCR1 151035Z 18012KT 23/19 A2973 RMK A01 T02310185  RH  075%=      5-min Rain = 0
KCR1 151036Z 18012KT 23/19 A2973 RMK A01 T02300185  RH  075%=      5-min Rain = 0
KCR1 151037Z 18012KT 23/19 A2973 RMK A01 T02300185  RH  075%=      5-min Rain = 0
KCR1 151038Z 18012KT 23/18 A2973 RMK A01 T02300184  RH  075%=      5-min Rain = 0
KCR1 151039Z 18013KT 23/19 A2973 RMK A01 T02300185  RH  075%=      5-min Rain = 0
KCR1 151040Z 18013KT 23/18 A2973 RMK A01 T02300184  RH  075%=      5-min Rain = 0
KCR1 151041Z 18011KT 23/18 A2973 RMK A01 T02300184  RH  075%=      5-min Rain = 0
KCR1 151042Z 18012KT 23/19 A2973 RMK A01 T02310185  RH  075%=      5-min Rain = 0
KCR1 151043Z 18011KT 23/19 A2973 RMK A01 T02300185  RH  075%=      5-min Rain = 0
KCR1 151044Z 18012KT 23/19 A2973 RMK A01 T02300185  RH  076%=      5-min Rain = 0
KCR1 151045Z 18012KT 23/18 A2973 RMK A01 T02300184  RH  076%=      5-min Rain = 0
KCR1 151046Z 18012KT 23/18 A2973 RMK A01 T02300184  RH  075%=      5-min Rain = 0
KCR1 151047Z 18011KT 23/19 A2973 RMK A01 T02300185  RH  076%=      5-min Rain = 0
KCR1 151048Z 18012KT 23/19 A2973 RMK A01 T02300185  RH  076%=      5-min Rain = 0
KCR1 151049Z 18012KT 23/19 A2973 RMK A01 T02300185  RH  076%=      5-min Rain = 0
KCR1 151050Z 18010KT 23/19 A2973 RMK A01 T02300185  RH  076%=      5-min Rain = 0
KCR1 151051Z 18012KT 23/19 A2973 RMK A01 T02300185  RH  076%=      5-min Rain = 0
KCR1 151052Z 18011KT 23/19 A2973 RMK A01 T02300185  RH  076%=      5-min Rain = 0
KCR1 151053Z 18011KT 23/19 A2973 RMK A01 T02300185  RH  076%=      5-min Rain = 0
KCR1 151054Z 19011KT 23/19 A2973 RMK A01 T02300185  RH  076%=      5-min Rain = 0
KCR1 151055Z 19011KT 23/19 A2973 RMK A01 T02300185  RH  076%=      5-min Rain = 0
KCR1 151056Z 18011KT 23/19 A2973 RMK A01 T02290185  RH  076%=      5-min Rain = 0
KCR1 151057Z 19012KT 23/19 A2973 RMK A01 T02290185  RH  076%=      5-min Rain = 0
KCR1 151058Z 18010KT 23/19 A2973 RMK A01 T02300185  RH  076%=      5-min Rain = 0
KCR1 151059Z 19010KT 23/19 A2973 RMK A01 T02300185  RH  076%=      5-min Rain = 0
KCR1 151100Z 19010KT 23/19 A2973 RMK A01 T02300185  RH  076%=      5-min Rain = 0
KCR1 151101Z 19010KT 23/19 A2973 RMK A01 T02290185  RH  076%=      5-min Rain = 0
KCR1 151102Z 18010KT 23/19 A2973 RMK A01 T02290185  RH  076%=      5-min Rain = 0
KCR1 151103Z 19011KT 23/19 A2974 RMK A01 T02290185  RH  076%=      5-min Rain = 0
KCR1 151104Z 18009KT 23/19 A2974 RMK A01 T02290185  RH  076%=      5-min Rain = 0
KCR1 151105Z 19008KT 23/19 A2974 RMK A01 T02290185  RH  076%=      5-min Rain = 0
KCR1 151106Z 19009KT 23/19 A2974 RMK A01 T02290185  RH  076%=      5-min Rain = 0
KCR1 151107Z 19008KT 23/19 A2974 RMK A01 T02290185  RH  076%=      5-min Rain = 0
KCR1 151108Z 18008KT 23/19 A2974 RMK A01 T02290185  RH  076%=      5-min Rain = 0
KCR1 151109Z 19009KT 23/19 A2974 RMK A01 T02280185  RH  077%=      5-min Rain = 0
KCR1 151110Z 19007KT 23/19 A2974 RMK A01 T02280185  RH  077%=      5-min Rain = 0
KCR1 151111Z 19007KT 23/19 A2974 RMK A01 T02280185  RH  077%=      5-min Rain = 0
KCR1 151112Z 19007KT 23/19 A2974 RMK A01 T02280185  RH  077%=      5-min Rain = 0
KCR1 151113Z 19006KT 23/19 A2975 RMK A01 T02280185  RH  077%=      5-min Rain = 0
KCR1 151114Z 19006KT 23/19 A2975 RMK A01 T02280185  RH  077%=      5-min Rain = 0
KCR1 151115Z 18007KT 23/19 A2975 RMK A01 T02280185  RH  077%=      5-min Rain = 0
KCR1 151116Z 19006KT 23/19 A2975 RMK A01 T02280185  RH  077%=      5-min Rain = 0
KCR1 151117Z 18005KT 23/19 A2975 RMK A01 T02270185  RH  077%=      5-min Rain = 0
KCR1 151118Z 18005KT 23/19 A2975 RMK A01 T02270185  RH  077%=      5-min Rain = 0
KCR1 151119Z 18006KT 23/19 A2975 RMK A01 T02260185  RH  077%=      5-min Rain = 0
KCR1 151120Z 18006KT 23/19 A2975 RMK A01 T02270185  RH  077%=      5-min Rain = 0
KCR1 151121Z 18006KT 23/19 A2975 RMK A01 T02270185  RH  077%=      5-min Rain = 0
KCR1 151122Z 18005KT 23/19 A2975 RMK A01 T02270185  RH  077%=      5-min Rain = 0
KCR1 151123Z 18006KT 23/19 A2975 RMK A01 T02280185  RH  077%=      5-min Rain = 0
KCR1 151124Z 18005KT 23/19 A2975 RMK A01 T02280186  RH  077%=      5-min Rain = 0
KCR1 151125Z 18006KT 23/19 A2975 RMK A01 T02270185  RH  077%=      5-min Rain = 0
KCR1 151126Z 18005KT 23/19 A2975 RMK A01 T02270185  RH  077%=      5-min Rain = 0
KCR1 151127Z 18006KT 23/19 A2975 RMK A01 T02260185  RH  077%=      5-min Rain = 0
KCR1 151128Z 18005KT 23/19 A2975 RMK A01 T02260185  RH  078%=      5-min Rain = 0
KCR1 151129Z 18005KT 23/19 A2975 RMK A01 T02250185  RH  078%=      5-min Rain = 0
KCR1 151130Z 18005KT 22/19 A2975 RMK A01 T02240185  RH  078%=      5-min Rain = 0
KCR1 151131Z 18005KT 22/19 A2975 RMK A01 T02240185  RH  079%=      5-min Rain = 0
KCR1 151132Z 17006KT 22/19 A2975 RMK A01 T02240185  RH  079%=      5-min Rain = 0
KCR1 151133Z 17006KT 22/19 A2975 RMK A01 T02240185  RH  079%=      5-min Rain = 0
KCR1 151134Z 18007KT 22/19 A2975 RMK A01 T02240185  RH  079%=      5-min Rain = 0
KCR1 151135Z 18006KT 22/19 A2975 RMK A01 T02240185  RH  079%=      5-min Rain = 0
KCR1 151136Z 17007KT 22/19 A2975 RMK A01 T02240185  RH  079%=      5-min Rain = 0
KCR1 151137Z 18007KT 22/19 A2975 RMK A01 T02240186  RH  079%=      5-min Rain = 0
KCR1 151138Z 18007KT 22/19 A2975 RMK A01 T02240186  RH  079%=      5-min Rain = 0
KCR1 151139Z 18008KT 22/19 A2975 RMK A01 T02230186  RH  080%=      5-min Rain = 0
KCR1 151140Z 18008KT 22/19 A2975 RMK A01 T02230186  RH  080%=      5-min Rain = 0
KCR1 151141Z 18008KT 22/19 A2975 RMK A01 T02230186  RH  080%=      5-min Rain = 0
KCR1 151142Z 18008KT 22/19 A2975 RMK A01 T02230186  RH  079%=      5-min Rain = 0
KCR1 151143Z 18009KT 22/19 A2975 RMK A01 T02240186  RH  079%=      5-min Rain = 0
KCR1 151144Z 18009KT 22/19 A2975 RMK A01 T02240186  RH  079%=      5-min Rain = 0
KCR1 151145Z 18009KT 22/19 A2975 RMK A01 T02240186  RH  079%=      5-min Rain = 0
KCR1 151146Z 18009KT 22/19 A2975 RMK A01 T02240187  RH  079%=      5-min Rain = 0
KCR1 151147Z 18010KT 22/19 A2975 RMK A01 T02230187  RH  080%=      5-min Rain = 0
KCR1 151148Z 18010KT 22/19 A2976 RMK A01 T02230187  RH  080%=      5-min Rain = 0
KCR1 151149Z 18010KT 22/19 A2976 RMK A01 T02230187  RH  080%=      5-min Rain = 0
KCR1 151150Z 18010KT 22/19 A2976 RMK A01 T02240187  RH  080%=      5-min Rain = 0
KCR1 151151Z 18010KT 22/19 A2976 RMK A01 T02240187  RH  079%=      5-min Rain = 0
KCR1 151152Z 18009KT 22/19 A2976 RMK A01 T02240187  RH  079%=      5-min Rain = 0
KCR1 151153Z 18010KT 22/19 A2975 RMK A01 T02240187  RH  080%=      5-min Rain = 0
KCR1 151154Z 18010KT 22/19 A2975 RMK A01 T02240187  RH  079%=      5-min Rain = 0
KCR1 151155Z 18010KT 22/19 A2975 RMK A01 T02240187  RH  079%=      5-min Rain = 0
KCR1 151156Z 18010KT 23/19 A2976 RMK A01 T02250187  RH  079%=      5-min Rain = 0
KCR1 151157Z 18010KT 23/19 A2976 RMK A01 T02250187  RH  079%=      5-min Rain = 0
KCR1 151158Z 18010KT 23/19 A2976 RMK A01 T02250188  RH  079%=      5-min Rain = 0
KCR1 151159Z 18010KT 23/19 A2976 RMK A01 T02250188  RH  079%=      5-min Rain = 0
KCR1 151200Z 18010KT 23/19 A2976 RMK A01 T02250187  RH  079%=      5-min Rain = 0
KCR1 151201Z 18010KT 22/19 A2976 RMK A01 T02240188  RH  080%=      5-min Rain = 0
KCR1 151202Z 18010KT 22/19 A2975 RMK A01 T02240188  RH  080%=      5-min Rain = 0
KCR1 151203Z 18011KT 22/19 A2975 RMK A01 T02240188  RH  080%=      5-min Rain = 0
KCR1 151204Z 18011KT 22/19 A2975 RMK A01 T02240188  RH  080%=      5-min Rain = 0
KCR1 151205Z 18011KT 22/19 A2975 RMK A01 T02240188  RH  080%=      5-min Rain = 0
KCR1 151206Z 18012KT 22/19 A2975 RMK A01 T02240188  RH  080%=      5-min Rain = 0
KCR1 151207Z 18010KT 23/19 A2975 RMK A01 T02250188  RH  079%=      5-min Rain = 0
KCR1 151208Z 18011KT 23/19 A2975 RMK A01 T02250188  RH  079%=      5-min Rain = 0
KCR1 151209Z 18010KT 23/19 A2975 RMK A01 T02250188  RH  079%=      5-min Rain = 0
KCR1 151210Z 18011KT 23/19 A2975 RMK A01 T02250188  RH  079%=      5-min Rain = 0
KCR1 151211Z 18011KT 23/19 A2975 RMK A01 T02250188  RH  080%=      5-min Rain = 0
KCR1 151212Z 18011KT 23/19 A2975 RMK A01 T02260189  RH  080%=      5-min Rain = 0
KCR1 151213Z 18010KT 23/19 A2975 RMK A01 T02270189  RH  079%=      5-min Rain = 0
KCR1 151214Z 18012KT 23/19 A2975 RMK A01 T02270189  RH  079%=      5-min Rain = 0
KCR1 151215Z 18013KT 23/19 A2975 RMK A01 T02280189  RH  079%=      5-min Rain = 0
KCR1 151216Z 18013KT 23/19 A2975 RMK A01 T02290189  RH  078%=      5-min Rain = 0
KCR1 151217Z 18011KT 23/19 A2975 RMK A01 T02300189  RH  078%=      5-min Rain = 0
KCR1 151218Z 18012KT 23/19 A2975 RMK A01 T02300189  RH  078%=      5-min Rain = 0
KCR1 151219Z 18012KT 23/19 A2975 RMK A01 T02310190  RH  077%=      5-min Rain = 0
KCR1 151220Z 18012KT 23/19 A2976 RMK A01 T02310190  RH  077%=      5-min Rain = 0
KCR1 151221Z 18013KT 23/19 A2976 RMK A01 T02320190  RH  077%=      5-min Rain = 0
KCR1 151222Z 18011KT 23/19 A2976 RMK A01 T02330190  RH  077%=      5-min Rain = 0
KCR1 151223Z 18012KT 23/19 A2976 RMK A01 T02330190  RH  077%=      5-min Rain = 0
KCR1 151224Z 18011KT 23/19 A2976 RMK A01 T02330191  RH  077%=      5-min Rain = 0
KCR1 151225Z 19011KT 23/19 A2976 RMK A01 T02340191  RH  077%=      5-min Rain = 0
KCR1 151226Z 18013KT 23/19 A2976 RMK A01 T02340191  RH  077%=      5-min Rain = 0
KCR1 151227Z 18013KT 24/19 A2976 RMK A01 T02350191  RH  076%=      5-min Rain = 0
KCR1 151228Z 19012KT 24/19 A2976 RMK A01 T02350191  RH  076%=      5-min Rain = 0
KCR1 151229Z 18013KT 24/19 A2976 RMK A01 T02360191  RH  076%=      5-min Rain = 0
KCR1 151230Z 18014KT 24/19 A2976 RMK A01 T02360191  RH  076%=      5-min Rain = 0
KCR1 151231Z 18012KT 24/19 A2976 RMK A01 T02360192  RH  076%=      5-min Rain = 0
KCR1 151232Z 18012KT 24/19 A2976 RMK A01 T02370192  RH  076%=      5-min Rain = 0
KCR1 151233Z 18013KT 24/19 A2976 RMK A01 T02370192  RH  076%=      5-min Rain = 0
KCR1 151234Z 18011KT 24/19 A2976 RMK A01 T02370192  RH  076%=      5-min Rain = 0
KCR1 151235Z 18011KT 24/19 A2976 RMK A01 T02380193  RH  076%=      5-min Rain = 0
KCR1 151236Z 18015KT 24/19 A2976 RMK A01 T02380192  RH  076%=      5-min Rain = 0
KCR1 151237Z 18013KT 24/19 A2976 RMK A01 T02380192  RH  075%=      5-min Rain = 0
KCR1 151238Z 19011KT 24/19 A2976 RMK A01 T02390193  RH  076%=      5-min Rain = 0
KCR1 151239Z 19014KT 24/19 A2976 RMK A01 T02390193  RH  076%=      5-min Rain = 0
KCR1 151240Z 18012KT 24/19 A2976 RMK A01 T02390193  RH  075%=      5-min Rain = 0
KCR1 151241Z 19014KT 24/19 A2976 RMK A01 T02400193  RH  075%=      5-min Rain = 0
KCR1 151242Z 19014KT 24/19 A2976 RMK A01 T02400193  RH  075%=      5-min Rain = 0
KCR1 151243Z 19012KT 24/19 A2976 RMK A01 T02400193  RH  075%=      5-min Rain = 0
KCR1 151244Z 19013KT 24/19 A2976 RMK A01 T02410194  RH  075%=      5-min Rain = 0
KCR1 151245Z 18012KT 24/19 A2976 RMK A01 T02410194  RH  075%=      5-min Rain = 0
KCR1 151246Z 19012KT 24/19 A2976 RMK A01 T02410194  RH  075%=      5-min Rain = 0
KCR1 151247Z 19012KT 24/20 A2976 RMK A01 T02420195  RH  075%=      5-min Rain = 0
KCR1 151248Z 19013KT 24/20 A2976 RMK A01 T02420195  RH  075%=      5-min Rain = 0
KCR1 151249Z 19014KT 24/19 A2976 RMK A01 T02430194  RH  074%=      5-min Rain = 0
KCR1 151250Z 19013KT 24/19 A2976 RMK A01 T02430194  RH  074%=      5-min Rain = 0
KCR1 151251Z 19016KT 24/20 A2976 RMK A01 T02430195  RH  074%=      5-min Rain = 0
KCR1 151252Z 19014KT 24/19 A2976 RMK A01 T02440194  RH  074%=      5-min Rain = 0
KCR1 151253Z 19015KT 25/20 A2976 RMK A01 T02450195  RH  074%=      5-min Rain = 0
KCR1 151254Z 19015KT 25/20 A2976 RMK A01 T02450195  RH  074%=      5-min Rain = 0
KCR1 151255Z 19014KT 25/19 A2976 RMK A01 T02450194  RH  073%=      5-min Rain = 0
KCR1 151256Z 19015KT 25/20 A2976 RMK A01 T02450195  RH  074%=      5-min Rain = 0
KCR1 151257Z 18014KT 25/20 A2976 RMK A01 T02460195  RH  073%=      5-min Rain = 0
KCR1 151258Z 19016G21KT 25/20 A2976 RMK A01 T02460195  RH  073%=      5-min Rain = 0
KCR1 151259Z 19016KT 25/19 A2976 RMK A01 T02470194  RH  073%=      5-min Rain = 0
KCR1 151300Z 19014KT 25/20 A2976 RMK A01 T02470195  RH  073%=      5-min Rain = 0
KCR1 151301Z 19015G21KT 25/20 A2976 RMK A01 T02480196  RH  073%=      5-min Rain = 0
KCR1 151302Z 19017KT 25/20 A2976 RMK A01 T02490195  RH  072%=      5-min Rain = 0
KCR1 151303Z 19017G22KT 25/20 A2976 RMK A01 T02490195  RH  072%=      5-min Rain = 0
KCR1 151304Z 19018KT 25/19 A2976 RMK A01 T02490194  RH  072%=      5-min Rain = 0
KCR1 151305Z 19017KT 25/20 A2976 RMK A01 T02500195  RH  071%=      5-min Rain = 0
KCR1 151306Z 19015G20KT 25/20 A2976 RMK A01 T02500195  RH  072%=      5-min Rain = 0
KCR1 151307Z 19017KT 25/20 A2976 RMK A01 T02510195  RH  071%=      5-min Rain = 0
KCR1 151308Z 19016KT 25/20 A2976 RMK A01 T02510196  RH  071%=      5-min Rain = 0
KCR1 151309Z 19016KT 25/20 A2976 RMK A01 T02510196  RH  071%=      5-min Rain = 0
KCR1 151310Z 19017KT 25/20 A2976 RMK A01 T02510196  RH  071%=      5-min Rain = 0
KCR1 151311Z 19017KT 25/20 A2976 RMK A01 T02520196  RH  071%=      5-min Rain = 0
KCR1 151312Z 19018KT 25/20 A2976 RMK A01 T02520196  RH  071%=      5-min Rain = 0
KCR1 151313Z 19019KT 25/20 A2976 RMK A01 T02530195  RH  070%=      5-min Rain = 0
KCR1 151314Z 19017G22KT 25/20 A2976 RMK A01 T02530196  RH  071%=      5-min Rain = 0
KCR1 151315Z 19019KT 25/20 A2976 RMK A01 T02540195  RH  070%=      5-min Rain = 0
KCR1 151316Z 19019KT 25/20 A2976 RMK A01 T02540195  RH  070%=      5-min Rain = 0
KCR1 151317Z 19017KT 25/20 A2976 RMK A01 T02540195  RH  070%=      5-min Rain = 0
KCR1 151318Z 19017KT 25/20 A2976 RMK A01 T02540196  RH  070%=      5-min Rain = 0
KCR1 151319Z 20018KT 25/20 A2976 RMK A01 T02540196  RH  070%=      5-min Rain = 0
KCR1 151320Z 19016KT 26/20 A2976 RMK A01 T02550196  RH  070%=      5-min Rain = 0
KCR1 151321Z 19016KT 26/20 A2976 RMK A01 T02560197  RH  070%=      5-min Rain = 0
KCR1 151322Z 19019KT 26/20 A2976 RMK A01 T02560197  RH  069%=      5-min Rain = 0
KCR1 151323Z 19019KT 26/20 A2976 RMK A01 T02560196  RH  069%=      5-min Rain = 0
KCR1 151324Z 20019KT 26/20 A2976 RMK A01 T02570196  RH  069%=      5-min Rain = 0
KCR1 151325Z 19019KT 26/20 A2976 RMK A01 T02560196  RH  069%=      5-min Rain = 0
KCR1 151326Z 20018KT 26/20 A2976 RMK A01 T02560197  RH  070%=      5-min Rain = 0
KCR1 151327Z 19021KT 26/20 A2976 RMK A01 T02570196  RH  069%=      5-min Rain = 0
KCR1 151328Z 20017KT 26/20 A2976 RMK A01 T02570196  RH  069%=      5-min Rain = 0
KCR1 151329Z 20020KT 26/20 A2976 RMK A01 T02570197  RH  069%=      5-min Rain = 0
KCR1 151330Z 19021KT 26/20 A2976 RMK A01 T02570196  RH  069%=      5-min Rain = 0
KCR1 151331Z 20019KT 26/20 A2976 RMK A01 T02570196  RH  069%=      5-min Rain = 0
KCR1 151332Z 20019KT 26/20 A2976 RMK A01 T02580197  RH  069%=      5-min Rain = 0
KCR1 151333Z 19015KT 26/20 A2976 RMK A01 T02580196  RH  069%=      5-min Rain = 0
KCR1 151334Z 20016KT 26/20 A2976 RMK A01 T02590197  RH  069%=      5-min Rain = 0
KCR1 151335Z 20016KT 26/20 A2976 RMK A01 T02590198  RH  069%=      5-min Rain = 0
KCR1 151336Z 20016KT 26/20 A2976 RMK A01 T02600199  RH  069%=      5-min Rain = 0
KCR1 151337Z 20018KT 26/20 A2977 RMK A01 T02600198  RH  069%=      5-min Rain = 0
KCR1 151338Z 19016G22KT 26/20 A2977 RMK A01 T02600198  RH  069%=      5-min Rain = 0
KCR1 151339Z 20018KT 26/20 A2977 RMK A01 T02600198  RH  068%=      5-min Rain = 0
KCR1 151340Z 19015KT 26/20 A2977 RMK A01 T02600198  RH  069%=      5-min Rain = 0
KCR1 151341Z 19014KT 26/20 A2977 RMK A01 T02610199  RH  069%=      5-min Rain = 0
KCR1 151342Z 19017KT 26/20 A2977 RMK A01 T02620199  RH  068%=      5-min Rain = 0
KCR1 151343Z 19015G20KT 26/20 A2977 RMK A01 T02630199  RH  068%=      5-min Rain = 0
KCR1 151344Z 20014G19KT 26/20 A2977 RMK A01 T02630200  RH  068%=      5-min Rain = 0
KCR1 151345Z 19013KT 26/20 A2977 RMK A01 T02630199  RH  068%=      5-min Rain = 0
KCR1 151346Z 20013G18KT 26/20 A2977 RMK A01 T02630200  RH  068%=      5-min Rain = 0
KCR1 151347Z 20017KT 26/20 A2977 RMK A01 T02640199  RH  068%=      5-min Rain = 0
KCR1 151348Z 20015KT 26/20 A2977 RMK A01 T02640198  RH  067%=      5-min Rain = 0
KCR1 151349Z 19013KT 26/20 A2977 RMK A01 T02630199  RH  068%=      5-min Rain = 0
KCR1 151350Z 20018KT 26/20 A2978 RMK A01 T02630199  RH  068%=      5-min Rain = 0
KCR1 151351Z 20014KT 26/20 A2978 RMK A01 T02640199  RH  067%=      5-min Rain = 0
KCR1 151352Z 20011KT 26/20 A2978 RMK A01 T02630200  RH  068%=      5-min Rain = 0
KCR1 151353Z 20012KT 26/20 A2978 RMK A01 T02640200  RH  068%=      5-min Rain = 0
KCR1 151354Z 20011KT 26/20 A2978 RMK A01 T02640199  RH  068%=      5-min Rain = 0
KCR1 151355Z 19011KT 27/20 A2978 RMK A01 T02650200  RH  067%=      5-min Rain = 0
KCR1 151356Z 19011G16KT 27/20 A2978 RMK A01 T02660201  RH  068%=      5-min Rain = 0
KCR1 151357Z 19015KT 27/20 A2978 RMK A01 T02670199  RH  066%=      5-min Rain = 0
KCR1 151358Z 19011KT 27/20 A2978 RMK A01 T02660198  RH  066%=      5-min Rain = 0
KCR1 151359Z 19010KT 27/20 A2979 RMK A01 T02660199  RH  067%=      5-min Rain = 0
KCR1 151400Z 19013KT 27/20 A2979 RMK A01 T02670199  RH  066%=      5-min Rain = 0
KCR1 151401Z 19012KT 27/20 A2979 RMK A01 T02670198  RH  066%=      5-min Rain = 0
KCR1 151402Z 19010KT 27/20 A2979 RMK A01 T02670201  RH  067%=      5-min Rain = 0
KCR1 151403Z 19009KT 27/20 A2979 RMK A01 T02680199  RH  066%=      5-min Rain = 0
KCR1 151404Z 19013G18KT 27/20 A2979 RMK A01 T02680198  RH  065%=      5-min Rain = 0
KCR1 151405Z 20009KT 27/20 A2979 RMK A01 T02680198  RH  066%=      5-min Rain = 0
KCR1 151406Z 18009KT 27/20 A298 RMK A01 T02680200  RH  066%=      5-min Rain = 0
KCR1 151407Z 19011KT 27/20 A298 RMK A01 T02700201  RH  066%=      5-min Rain = 0
KCR1 151408Z 19009KT 27/20 A298 RMK A01 T02700200  RH  065%=      5-min Rain = 0
KCR1 151409Z 18009KT 27/20 A298 RMK A01 T02700200  RH  065%=      5-min Rain = 0
KCR1 151410Z 20008KT 27/20 A298 RMK A01 T02710200  RH  065%=      5-min Rain = 0
KCR1 151411Z 19009KT 27/20 A298 RMK A01 T02710202  RH  066%=      5-min Rain = 0
KCR1 151412Z 19009KT 27/20 A298 RMK A01 T02730203  RH  066%=      5-min Rain = 0
KCR1 151413Z 19009KT 27/20 A298 RMK A01 T02740202  RH  065%=      5-min Rain = 0
KCR1 151414Z 20006KT 27/20 A298 RMK A01 T02740202  RH  065%=      5-min Rain = 0
KCR1 151415Z 20008KT 27/20 A298 RMK A01 T02740203  RH  065%=      5-min Rain = 0
KCR1 151416Z 18011KT 27/20 A298 RMK A01 T02740201  RH  064%=      5-min Rain = 0
KCR1 151417Z 17011KT 28/20 A298 RMK A01 T02750201  RH  064%=      5-min Rain = 0
KCR1 151418Z 18013KT 28/20 A298 RMK A01 T02760199  RH  063%=      5-min Rain = 0
KCR1 151419Z 19015KT 28/20 A2979 RMK A01 T02760198  RH  063%=      5-min Rain = 0
KCR1 151420Z 19011KT 27/20 A2979 RMK A01 T02740195  RH  062%=      5-min Rain = 0
KCR1 151421Z 20013KT 27/20 A2979 RMK A01 T02730199  RH  064%=      5-min Rain = 0
KCR1 151422Z 18013KT 27/20 A2979 RMK A01 T02740198  RH  063%=      5-min Rain = 0
KCR1 151423Z 20012KT 28/20 A2979 RMK A01 T02750197  RH  062%=      5-min Rain = 0
KCR1 151424Z 20012KT 28/20 A2979 RMK A01 T02750198  RH  063%=      5-min Rain = 0
KCR1 151425Z 19011KT 28/20 A2979 RMK A01 T02760201  RH  064%=      5-min Rain = 0
KCR1 151426Z 19011KT 28/20 A2979 RMK A01 T02770201  RH  063%=      5-min Rain = 0
KCR1 151427Z 19011KT 28/20 A2979 RMK A01 T02770201  RH  063%=      5-min Rain = 0
KCR1 151428Z 18012KT 28/20 A2978 RMK A01 T02770201  RH  063%=      5-min Rain = 0
KCR1 151429Z 19016KT 28/20 A2978 RMK A01 T02760198  RH  062%=      5-min Rain = 0
KCR1 151430Z 19014KT 28/20 A2978 RMK A01 T02750199  RH  063%=      5-min Rain = 0
KCR1 151431Z 19012KT 28/20 A2978 RMK A01 T02760202  RH  064%=      5-min Rain = 0
KCR1 151432Z 20012KT 28/20 A2978 RMK A01 T02780202  RH  063%=      5-min Rain = 0
KCR1 151433Z 21013KT 28/20 A2978 RMK A01 T02800200  RH  062%=      5-min Rain = 0
KCR1 151434Z 20014KT 28/20 A2978 RMK A01 T02800199  RH  061%=      5-min Rain = 0
KCR1 151435Z 20014KT 28/20 A2978 RMK A01 T02790200  RH  062%=      5-min Rain = 0
KCR1 151436Z 20013KT 28/20 A2978 RMK A01 T02790200  RH  062%=      5-min Rain = 0
KCR1 151437Z 20013KT 28/20 A2977 RMK A01 T02790196  RH  061%=      5-min Rain = 0
KCR1 151438Z 20016KT 28/20 A2977 RMK A01 T02800198  RH  061%=      5-min Rain = 0
KCR1 151439Z 20015KT 28/20 A2977 RMK A01 T02800199  RH  062%=      5-min Rain = 0
KCR1 151440Z 20016KT 28/20 A2977 RMK A01 T02800198  RH  061%=      5-min Rain = 0
KCR1 151441Z 20015KT 28/20 A2977 RMK A01 T02810195  RH  060%=      5-min Rain = 0
KCR1 151442Z 20015KT 28/19 A2977 RMK A01 T02810193  RH  059%=      5-min Rain = 0
KCR1 151443Z 20016KT 28/20 A2977 RMK A01 T02810195  RH  059%=      5-min Rain = 0
KCR1 151444Z 20014KT 28/20 A2977 RMK A01 T02820196  RH  059%=      5-min Rain = 0
KCR1 151445Z 19013KT 28/20 A2977 RMK A01 T02830199  RH  060%=      5-min Rain = 0
KCR1 151446Z 21015KT 28/20 A2977 RMK A01 T02840199  RH  060%=      5-min Rain = 0
KCR1 151447Z 20015KT 29/20 A2977 RMK A01 T02850197  RH  059%=      5-min Rain = 0
KCR1 151448Z 19019KT 28/20 A2977 RMK A01 T02840196  RH  059%=      5-min Rain = 0
KCR1 151449Z 20018KT 28/19 A2977 RMK A01 T02840194  RH  058%=      5-min Rain = 0
KCR1 151450Z 20016KT 28/20 A2977 RMK A01 T02840196  RH  059%=      5-min Rain = 0
KCR1 151451Z 19018KT 28/19 A2977 RMK A01 T02840194  RH  058%=      5-min Rain = 0
KCR1 151452Z 20018KT 29/19 A2977 RMK A01 T02850194  RH  058%=      5-min Rain = 0
KCR1 151453Z 20020KT 28/19 A2977 RMK A01 T02840193  RH  058%=      5-min Rain = 0
KCR1 151454Z 20019KT 28/19 A2977 RMK A01 T02830193  RH  058%=      5-min Rain = 0
KCR1 151455Z 20016KT 28/19 A2977 RMK A01 T02830194  RH  058%=      5-min Rain = 0
KCR1 151456Z 20016KT 29/20 A2977 RMK A01 T02850195  RH  058%=      5-min Rain = 0
KCR1 151457Z 21018KT 29/19 A2977 RMK A01 T02850192  RH  057%=      5-min Rain = 0
KCR1 151458Z 21016KT 29/19 A2977 RMK A01 T02850193  RH  057%=      5-min Rain = 0
KCR1 151459Z 21015KT 29/19 A2977 RMK A01 T02850193  RH  057%=      5-min Rain = 0
KCR1 151500Z 21014KT 29/20 A2977 RMK A01 T02860196  RH  058%=      5-min Rain = 0
KCR1 151501Z 20012KT 29/20 A2977 RMK A01 T02870198  RH  058%=      5-min Rain = 0
KCR1 151502Z 21015KT 29/20 A2977 RMK A01 T02890199  RH  058%=      5-min Rain = 0
KCR1 151503Z 20015KT 29/20 A2977 RMK A01 T02900196  RH  057%=      5-min Rain = 0
KCR1 151504Z 19015G20KT 29/20 A2977 RMK A01 T02890195  RH  057%=      5-min Rain = 0
KCR1 151505Z 20017G23KT 29/19 A2976 RMK A01 T02890193  RH  056%=      5-min Rain = 0
KCR1 151506Z 20018KT 29/19 A2976 RMK A01 T02890192  RH  056%=      5-min Rain = 0
KCR1 151507Z 20018KT 29/19 A2977 RMK A01 T02890191  RH  055%=      5-min Rain = 0
KCR1 151508Z 20015KT 29/19 A2976 RMK A01 T02880192  RH  056%=      5-min Rain = 0
KCR1 151509Z 20014KT 29/19 A2976 RMK A01 T02890193  RH  056%=      5-min Rain = 0
KCR1 151510Z 21016KT 29/19 A2977 RMK A01 T02890192  RH  056%=      5-min Rain = 0
KCR1 151511Z 20015KT 29/19 A2977 RMK A01 T02890194  RH  057%=      5-min Rain = 0
KCR1 151512Z 20017KT 29/19 A2977 RMK A01 T02890194  RH  056%=      5-min Rain = 0
KCR1 151513Z 20019KT 29/19 A2977 RMK A01 T02890192  RH  056%=      5-min Rain = 0
KCR1 151514Z 21017KT 29/19 A2977 RMK A01 T02880191  RH  056%=      5-min Rain = 0
KCR1 151515Z 21016KT 29/19 A2977 RMK A01 T02880190  RH  056%=      5-min Rain = 0
KCR1 151516Z 20013G21KT 29/20 A2977 RMK A01 T02880196  RH  058%=      5-min Rain = 0
KCR1 151517Z 19018KT 29/19 A2977 RMK A01 T02900193  RH  056%=      5-min Rain = 0
KCR1 151518Z 19017KT 29/19 A2977 RMK A01 T02900192  RH  056%=      5-min Rain = 0
KCR1 151519Z 19015KT 29/19 A2977 RMK A01 T02890194  RH  056%=      5-min Rain = 0
KCR1 151520Z 20015KT 29/20 A2977 RMK A01 T02900195  RH  057%=      5-min Rain = 0
KCR1 151521Z 20016KT 29/19 A2977 RMK A01 T02900193  RH  056%=      5-min Rain = 0
KCR1 151522Z 20014KT 29/19 A2977 RMK A01 T02900194  RH  056%=      5-min Rain = 0
KCR1 151523Z 20014KT 29/19 A2977 RMK A01 T02900193  RH  056%=      5-min Rain = 0
KCR1 151524Z 20015KT 29/19 A2977 RMK A01 T02910193  RH  055%=      5-min Rain = 0
KCR1 151525Z 20013G18KT 29/19 A2977 RMK A01 T02900194  RH  056%=      5-min Rain = 0
KCR1 151526Z 20015KT 29/19 A2977 RMK A01 T02910193  RH  056%=      5-min Rain = 0
KCR1 151527Z 20015KT 29/20 A2977 RMK A01 T02920195  RH  056%=      5-min Rain = 0
KCR1 151528Z 20016KT 29/19 A2977 RMK A01 T02930193  RH  055%=      5-min Rain = 0
KCR1 151529Z 20013KT 29/19 A2977 RMK A01 T02930194  RH  055%=      5-min Rain = 0
KCR1 151530Z 20014KT 29/19 A2977 RMK A01 T02940193  RH  055%=      5-min Rain = 0
KCR1 151531Z 20013KT 29/20 A2977 RMK A01 T02930195  RH  055%=      5-min Rain = 0
KCR1 151532Z 20014KT 29/19 A2977 RMK A01 T02940194  RH  055%=      5-min Rain = 0
KCR1 151533Z 20011KT 30/19 A2977 RMK A01 T02950194  RH  055%=      5-min Rain = 0
KCR1 151534Z 21011KT 30/20 A2978 RMK A01 T02960196  RH  055%=      5-min Rain = 0
KCR1 151535Z 20012KT 30/19 A2978 RMK A01 T02960194  RH  054%=      5-min Rain = 0
KCR1 151536Z 20011KT 30/19 A2978 RMK A01 T02960193  RH  054%=      5-min Rain = 0
KCR1 151537Z 20011KT 30/20 A2978 RMK A01 T02950198  RH  056%=      5-min Rain = 0
KCR1 151538Z 19008KT 30/20 A2978 RMK A01 T02970199  RH  056%=      5-min Rain = 0
KCR1 151539Z 20010KT 30/20 A2978 RMK A01 T02980200  RH  056%=      5-min Rain = 0
KCR1 151540Z 19010KT 30/20 A2978 RMK A01 T02990199  RH  055%=      5-min Rain = 0
KCR1 151541Z 19012KT 30/20 A2978 RMK A01 T02990199  RH  055%=      5-min Rain = 0
KCR1 151542Z 18014KT 30/20 A2978 RMK A01 T02990198  RH  055%=      5-min Rain = 0
KCR1 151543Z 19014KT 30/20 A2978 RMK A01 T03000195  RH  053%=      5-min Rain = 0
KCR1 151544Z 20011KT 30/20 A2978 RMK A01 T03000196  RH  054%=      5-min Rain = 0
KCR1 151545Z 20009KT 30/20 A2978 RMK A01 T03010200  RH  055%=      5-min Rain = 0
KCR1 151546Z 19016KT 30/20 A2978 RMK A01 T03020196  RH  053%=      5-min Rain = 0
KCR1 151547Z 19016KT 30/20 A2977 RMK A01 T03020195  RH  053%=      5-min Rain = 0
KCR1 151548Z 20015KT 30/19 A2977 RMK A01 T03010194  RH  053%=      5-min Rain = 0
KCR1 151549Z 19016KT 30/19 A2977 RMK A01 T03000193  RH  053%=      5-min Rain = 0
KCR1 151550Z 19016KT 30/19 A2977 RMK A01 T02990192  RH  053%=      5-min Rain = 0
KCR1 151551Z 20016KT 30/19 A2977 RMK A01 T02990191  RH  052%=      5-min Rain = 0
KCR1 151552Z 20014KT 30/19 A2977 RMK A01 T02980192  RH  053%=      5-min Rain = 0
KCR1 151553Z 20013KT 30/19 A2977 RMK A01 T02990190  RH  052%=      5-min Rain = 0
KCR1 151554Z 20014KT 30/19 A2978 RMK A01 T03000192  RH  052%=      5-min Rain = 0
KCR1 151555Z 21011KT 30/19 A2978 RMK A01 T03020192  RH  052%=      5-min Rain = 0
KCR1 151556Z 21013KT 30/19 A2978 RMK A01 T03020194  RH  052%=      5-min Rain = 0
KCR1 151557Z 21015KT 30/19 A2977 RMK A01 T03030194  RH  052%=      5-min Rain = 0
KCR1 151558Z 21013KT 30/19 A2977 RMK A01 T03020193  RH  052%=      5-min Rain = 0
KCR1 151559Z 22013KT 30/19 A2977 RMK A01 T03010193  RH  052%=      5-min Rain = 0
KCR1 151600Z 21010KT 30/19 A2977 RMK A01 T03000194  RH  053%=      5-min Rain = 0
KCR1 151601Z 20014G19KT 30/20 A2977 RMK A01 T03010196  RH  053%=      5-min Rain = 0
KCR1 151602Z 19017KT 30/19 A2977 RMK A01 T03020192  RH  052%=      5-min Rain = 0
KCR1 151603Z 19014KT 30/19 A2977 RMK A01 T03020194  RH  053%=      5-min Rain = 0
KCR1 151604Z 19013KT 30/20 A2977 RMK A01 T03030197  RH  053%=      5-min Rain = 0
KCR1 151605Z 19018KT 31/20 A2977 RMK A01 T03050197  RH  052%=      5-min Rain = 0
KCR1 151606Z 20017KT 31/19 A2977 RMK A01 T03050193  RH  051%=      5-min Rain = 0
KCR1 151607Z 20017KT 30/19 A2977 RMK A01 T03040192  RH  051%=      5-min Rain = 0
KCR1 151608Z 20018KT 30/19 A2977 RMK A01 T03030192  RH  051%=      5-min Rain = 0
KCR1 151609Z 19018KT 30/19 A2976 RMK A01 T03030190  RH  051%=      5-min Rain = 0
KCR1 151610Z 19019KT 30/19 A2976 RMK A01 T03030191  RH  051%=      5-min Rain = 0
KCR1 151611Z 20018KT 30/19 A2976 RMK A01 T03030191  RH  051%=      5-min Rain = 0
KCR1 151612Z 19017KT 30/19 A2976 RMK A01 T03030190  RH  051%=      5-min Rain = 0
KCR1 151613Z 20017KT 30/19 A2976 RMK A01 T03010193  RH  052%=      5-min Rain = 0
KCR1 151614Z 20017KT 30/19 A2976 RMK A01 T03030194  RH  052%=      5-min Rain = 0
KCR1 151615Z 20016KT 30/19 A2976 RMK A01 T03030192  RH  051%=      5-min Rain = 0
KCR1 151616Z 20017KT 30/19 A2977 RMK A01 T03040191  RH  051%=      5-min Rain = 0
KCR1 151617Z 20016KT 30/19 A2977 RMK A01 T03040192  RH  051%=      5-min Rain = 0
KCR1 151618Z 20015KT 30/19 A2977 RMK A01 T03040193  RH  052%=      5-min Rain = 0
KCR1 151619Z 20015KT 30/19 A2977 RMK A01 T03040193  RH  052%=      5-min Rain = 0
KCR1 151620Z 20016KT 31/19 A2977 RMK A01 T03060191  RH  050%=      5-min Rain = 0
KCR1 151621Z 21014KT 31/19 A2977 RMK A01 T03060193  RH  051%=      5-min Rain = 0
KCR1 151622Z 20014KT 31/19 A2976 RMK A01 T03050189  RH  050%=      5-min Rain = 0
KCR1 151623Z 20013KT 31/19 A2976 RMK A01 T03050190  RH  050%=      5-min Rain = 0
KCR1 151624Z 21014KT 31/20 A2976 RMK A01 T03060195  RH  051%=      5-min Rain = 0
KCR1 151625Z 19013KT 31/19 A2977 RMK A01 T03070194  RH  051%=      5-min Rain = 0
KCR1 151626Z 20011KT 31/20 A2977 RMK A01 T03080196  RH  051%=      5-min Rain = 0
KCR1 151627Z 20013KT 31/20 A2977 RMK A01 T03110196  RH  051%=      5-min Rain = 0
KCR1 151628Z 21016KT 31/19 A2977 RMK A01 T03110193  RH  049%=      5-min Rain = 0
KCR1 151629Z 21014KT 31/19 A2977 RMK A01 T03100189  RH  048%=      5-min Rain = 0
KCR1 151630Z 20009KT 31/20 A2977 RMK A01 T03090195  RH  051%=      5-min Rain = 0
KCR1 151631Z 21012KT 31/20 A2977 RMK A01 T03110196  RH  050%=      5-min Rain = 0
KCR1 151632Z 19013KT 31/20 A2976 RMK A01 T03120198  RH  051%=      5-min Rain = 0
KCR1 151633Z 19015KT 31/20 A2976 RMK A01 T03110197  RH  050%=      5-min Rain = 0
KCR1 151634Z 20014G19KT 31/20 A2976 RMK A01 T03110197  RH  051%=      5-min Rain = 0
KCR1 151635Z 20017KT 31/19 A2976 RMK A01 T03100194  RH  050%=      5-min Rain = 0
KCR1 151636Z 20016KT 31/19 A2976 RMK A01 T03080190  RH  049%=      5-min Rain = 0
KCR1 151637Z 20012KT 31/19 A2976 RMK A01 T03070193  RH  051%=      5-min Rain = 0
KCR1 151638Z 20015KT 31/20 A2977 RMK A01 T03080195  RH  051%=      5-min Rain = 0
KCR1 151639Z 20014KT 31/20 A2977 RMK A01 T03090195  RH  051%=      5-min Rain = 0
KCR1 151640Z 20012KT 31/20 A2977 RMK A01 T03100195  RH  050%=      5-min Rain = 0
KCR1 151641Z 20011KT 31/19 A2976 RMK A01 T03110194  RH  050%=      5-min Rain = 0
KCR1 151642Z 19011KT 31/20 A2976 RMK A01 T03110200  RH  052%=      5-min Rain = 0
KCR1 151643Z 20014KT 31/20 A2976 RMK A01 T03140197  RH  050%=      5-min Rain = 0
KCR1 151644Z 21011KT 32/19 A2976 RMK A01 T03150191  RH  048%=      5-min Rain = 0
KCR1 151645Z 21011KT 31/19 A2976 RMK A01 T03140194  RH  049%=      5-min Rain = 0
KCR1 151646Z 20011KT 31/20 A2976 RMK A01 T03140196  RH  049%=      5-min Rain = 0
KCR1 151647Z 19012KT 32/20 A2976 RMK A01 T03150198  RH  050%=      5-min Rain = 0
KCR1 151648Z 19014KT 32/20 A2976 RMK A01 T03150198  RH  050%=      5-min Rain = 0
KCR1 151649Z 19012G19KT 32/20 A2976 RMK A01 T03160202  RH  051%=      5-min Rain = 0
KCR1 151650Z 20016KT 32/19 A2976 RMK A01 T03170193  RH  048%=      5-min Rain = 0
KCR1 151651Z 20014KT 32/19 A2976 RMK A01 T03170191  RH  047%=      5-min Rain = 0
KCR1 151652Z 21011KT 32/20 A2976 RMK A01 T03160195  RH  049%=      5-min Rain = 0
KCR1 151653Z 20012KT 32/20 A2976 RMK A01 T03160195  RH  049%=      5-min Rain = 0
KCR1 151654Z 20014KT 32/20 A2976 RMK A01 T03160197  RH  049%=      5-min Rain = 0
KCR1 151655Z 18015G21KT 32/20 A2976 RMK A01 T03180200  RH  050%=      5-min Rain = 0
KCR1 151656Z 18017KT 32/19 A2976 RMK A01 T03180194  RH  048%=      5-min Rain = 0
KCR1 151657Z 19015KT 32/19 A2976 RMK A01 T03170191  RH  047%=      5-min Rain = 0
KCR1 151658Z 19011KT 32/19 A2976 RMK A01 T03160193  RH  048%=      5-min Rain = 0
KCR1 151659Z 18013KT 32/20 A2976 RMK A01 T03190197  RH  048%=      5-min Rain = 0
KCR1 151700Z 18013G18KT 32/20 A2976 RMK A01 T03210201  RH  049%=      5-min Rain = 0
KCR1 151701Z 18016KT 32/20 A2976 RMK A01 T03200200  RH  049%=      5-min Rain = 0
KCR1 151702Z 18013KT 32/20 A2976 RMK A01 T03200200  RH  049%=      5-min Rain = 0
KCR1 151703Z 19014KT 32/20 A2976 RMK A01 T03190199  RH  049%=      5-min Rain = 0
KCR1 151704Z 19013KT 32/20 A2976 RMK A01 T03180201  RH  050%=      5-min Rain = 0
KCR1 151705Z 17014G19KT 32/20 A2976 RMK A01 T03190204  RH  051%=      5-min Rain = 0
KCR1 151706Z 18015KT 32/20 A2976 RMK A01 T03210200  RH  049%=      5-min Rain = 0
KCR1 151707Z 18012KT 32/20 A2976 RMK A01 T03200202  RH  050%=      5-min Rain = 0
KCR1 151708Z 18016KT 32/20 A2976 RMK A01 T03210202  RH  049%=      5-min Rain = 0
KCR1 151709Z 18017KT 32/20 A2976 RMK A01 T03210199  RH  049%=      5-min Rain = 0
KCR1 151710Z 18015KT 32/20 A2976 RMK A01 T03190196  RH  048%=      5-min Rain = 0
KCR1 151711Z 18014KT 32/20 A2976 RMK A01 T03160197  RH  049%=      5-min Rain = 0
KCR1 151712Z 19013KT 32/20 A2976 RMK A01 T03160202  RH  051%=      5-min Rain = 0
KCR1 151713Z 19015KT 32/20 A2976 RMK A01 T03190199  RH  049%=      5-min Rain = 0
KCR1 151714Z 19015KT 32/20 A2976 RMK A01 T03200198  RH  049%=      5-min Rain = 0
KCR1 151715Z 19013KT 32/20 A2976 RMK A01 T03200200  RH  049%=      5-min Rain = 0
KCR1 151716Z 19015KT 32/20 A2976 RMK A01 T03210200  RH  049%=      5-min Rain = 0
KCR1 151717Z 18016KT 32/20 A2976 RMK A01 T03220197  RH  048%=      5-min Rain = 0
KCR1 151718Z 18015KT 32/20 A2976 RMK A01 T03200195  RH  048%=      5-min Rain = 0
KCR1 151719Z 18014KT 32/20 A2975 RMK A01 T03190200  RH  049%=      5-min Rain = 0
KCR1 151720Z 18017KT 32/20 A2975 RMK A01 T03210199  RH  049%=      5-min Rain = 0
KCR1 151721Z 19015G20KT 32/20 A2975 RMK A01 T03220201  RH  049%=      5-min Rain = 0
KCR1 151722Z 19018KT 32/20 A2975 RMK A01 T03240201  RH  048%=      5-min Rain = 0
KCR1 151723Z 19016G21KT 32/20 A2976 RMK A01 T03230198  RH  048%=      5-min Rain = 0
KCR1 151724Z 19014KT 32/20 A2976 RMK A01 T03220200  RH  048%=      5-min Rain = 0
KCR1 151725Z 18014KT 32/20 A2976 RMK A01 T03220200  RH  049%=      5-min Rain = 0
KCR1 151726Z 19014KT 32/20 A2976 RMK A01 T03210196  RH  048%=      5-min Rain = 0
KCR1 151727Z 20015KT 32/20 A2976 RMK A01 T03220197  RH  048%=      5-min Rain = 0
KCR1 151728Z 18016KT 32/20 A2976 RMK A01 T03230199  RH  048%=      5-min Rain = 0
KCR1 151729Z 18014KT 32/20 A2976 RMK A01 T03230200  RH  048%=      5-min Rain = 0
KCR1 151730Z 20013KT 32/20 A2976 RMK A01 T03230201  RH  048%=      5-min Rain = 0
KCR1 151731Z 21011KT 32/20 A2976 RMK A01 T03240199  RH  048%=      5-min Rain = 0
KCR1 151732Z 21011KT 33/20 A2976 RMK A01 T03250197  RH  047%=      5-min Rain = 0
KCR1 151733Z 19011KT 32/20 A2976 RMK A01 T03240201  RH  048%=      5-min Rain = 0
KCR1 151734Z 20013KT 33/20 A2976 RMK A01 T03250199  RH  047%=      5-min Rain = 0
KCR1 151735Z 19013KT 32/20 A2976 RMK A01 T03240201  RH  048%=      5-min Rain = 0
KCR1 151736Z 18017KT 33/20 A2976 RMK A01 T03260199  RH  047%=      5-min Rain = 0
KCR1 151737Z 18015KT 33/19 A2976 RMK A01 T03250194  RH  046%=      5-min Rain = 0
KCR1 151738Z 19013KT 32/20 A2976 RMK A01 T03240198  RH  048%=      5-min Rain = 0
KCR1 151739Z 20013KT 33/20 A2975 RMK A01 T03260201  RH  048%=      5-min Rain = 0
KCR1 151740Z 18014KT 33/20 A2975 RMK A01 T03280201  RH  047%=      5-min Rain = 0
KCR1 151741Z 18016KT 33/20 A2975 RMK A01 T03280199  RH  047%=      5-min Rain = 0
KCR1 151742Z 17019KT 33/20 A2975 RMK A01 T03280196  RH  046%=      5-min Rain = 0
KCR1 151743Z 18016G21KT 33/20 A2975 RMK A01 T03260198  RH  047%=      5-min Rain = 0
KCR1 151744Z 17017KT 33/20 A2975 RMK A01 T03250195  RH  046%=      5-min Rain = 0
KCR1 151745Z 19017KT 33/20 A2975 RMK A01 T03260196  RH  046%=      5-min Rain = 0
KCR1 151746Z 19014KT 33/20 A2975 RMK A01 T03260195  RH  046%=      5-min Rain = 0
KCR1 151747Z 18011KT 33/20 A2976 RMK A01 T03250197  RH  047%=      5-min Rain = 0
KCR1 151748Z 19011KT 33/20 A2976 RMK A01 T03260200  RH  047%=      5-min Rain = 0
KCR1 151749Z 18012KT 33/20 A2976 RMK A01 T03270200  RH  047%=      5-min Rain = 0
KCR1 151750Z 18012KT 33/20 A2976 RMK A01 T03290204  RH  048%=      5-min Rain = 0
KCR1 151751Z 18013KT 33/20 A2976 RMK A01 T03300199  RH  046%=      5-min Rain = 0
KCR1 151752Z 17011KT 33/20 A2976 RMK A01 T03290198  RH  046%=      5-min Rain = 0
KCR1 151753Z 17011KT 33/20 A2976 RMK A01 T03290200  RH  047%=      5-min Rain = 0
KCR1 151754Z 19013KT 33/20 A2976 RMK A01 T03290201  RH  047%=      5-min Rain = 0
KCR1 151755Z 19014KT 33/20 A2975 RMK A01 T03300199  RH  046%=      5-min Rain = 0
KCR1 151756Z 19015KT 33/20 A2975 RMK A01 T03310201  RH  046%=      5-min Rain = 0
KCR1 151757Z 17014KT 33/20 A2975 RMK A01 T03290199  RH  046%=      5-min Rain = 0
KCR1 151758Z 17015KT 33/20 A2975 RMK A01 T03290201  RH  047%=      5-min Rain = 0
KCR1 151759Z 18015KT 33/20 A2975 RMK A01 T03300200  RH  046%=      5-min Rain = 0
KCR1 151800Z 17014KT 33/20 A2975 RMK A01 T03300200  RH  046%=      5-min Rain = 0
KCR1 151801Z 18011KT 33/20 A2975 RMK A01 T03290202  RH  047%=      5-min Rain = 0
KCR1 151802Z 17014KT 33/20 A2975 RMK A01 T03310203  RH  047%=      5-min Rain = 0
KCR1 151803Z 18014KT 33/20 A2975 RMK A01 T03320200  RH  046%=      5-min Rain = 0
KCR1 151804Z 18014KT 33/20 A2975 RMK A01 T03310199  RH  046%=      5-min Rain = 0
KCR1 151805Z 18014KT 33/20 A2975 RMK A01 T03300200  RH  046%=      5-min Rain = 0
KCR1 151806Z 19014KT 33/20 A2975 RMK A01 T03300199  RH  046%=      5-min Rain = 0
KCR1 151807Z 20013KT 33/20 A2975 RMK A01 T03320199  RH  046%=      5-min Rain = 0
KCR1 151808Z 20013KT 33/20 A2975 RMK A01 T03340198  RH  045%=      5-min Rain = 0
KCR1 151809Z 20011KT 33/20 A2975 RMK A01 T03340200  RH  045%=      5-min Rain = 0
KCR1 151810Z 20014KT 33/20 A2975 RMK A01 T03340197  RH  045%=      5-min Rain = 0
KCR1 151811Z 20014KT 33/19 A2975 RMK A01 T03340194  RH  044%=      5-min Rain = 0
KCR1 151812Z 19012KT 33/20 A2975 RMK A01 T03340201  RH  046%=      5-min Rain = 0
KCR1 151813Z 19012KT 34/20 A2975 RMK A01 T03370203  RH  045%=      5-min Rain = 0
KCR1 151814Z 18011KT 34/20 A2975 RMK A01 T03370202  RH  045%=      5-min Rain = 0
KCR1 151815Z 19011KT 34/20 A2975 RMK A01 T03350200  RH  045%=      5-min Rain = 0
KCR1 151816Z 17015KT 34/20 A2975 RMK A01 T03350201  RH  046%=      5-min Rain = 0
KCR1 151817Z 19016KT 34/20 A2975 RMK A01 T03350199  RH  045%=      5-min Rain = 0
KCR1 151818Z 18014KT 34/20 A2975 RMK A01 T03350196  RH  044%=      5-min Rain = 0
KCR1 151819Z 19013KT 33/20 A2975 RMK A01 T03340199  RH  045%=      5-min Rain = 0
KCR1 151820Z 18011KT 34/20 A2975 RMK A01 T03360201  RH  045%=      5-min Rain = 0
KCR1 151821Z 18013KT 34/20 A2975 RMK A01 T03360199  RH  045%=      5-min Rain = 0
KCR1 151822Z 17012KT 34/20 A2975 RMK A01 T03360197  RH  044%=      5-min Rain = 0
KCR1 151823Z 17014KT 34/20 A2974 RMK A01 T03350201  RH  046%=      5-min Rain = 0
KCR1 151824Z 18013KT 34/20 A2974 RMK A01 T03350201  RH  045%=      5-min Rain = 0
KCR1 151825Z 19013KT 34/20 A2974 RMK A01 T03360200  RH  045%=      5-min Rain = 0
KCR1 151826Z 18010KT 34/20 A2974 RMK A01 T03370202  RH  045%=      5-min Rain = 0
KCR1 151827Z 21014KT 34/20 A2974 RMK A01 T03380200  RH  044%=      5-min Rain = 0
KCR1 151828Z 21014KT 34/19 A2974 RMK A01 T03390193  RH  042%=      5-min Rain = 0
KCR1 151829Z 21012KT 34/19 A2974 RMK A01 T03380194  RH  043%=      5-min Rain = 0
KCR1 151830Z 20012KT 34/20 A2974 RMK A01 T03390197  RH  043%=      5-min Rain = 0
KCR1 151831Z 18013KT 34/20 A2974 RMK A01 T03390200  RH  044%=      5-min Rain = 0
KCR1 151832Z 18016KT 34/20 A2974 RMK A01 T03400196  RH  043%=      5-min Rain = 0
KCR1 151833Z 18012KT 34/20 A2974 RMK A01 T03390198  RH  044%=      5-min Rain = 0
KCR1 151834Z 18013KT 34/20 A2974 RMK A01 T03380197  RH  044%=      5-min Rain = 0
KCR1 151835Z 18012KT 34/20 A2974 RMK A01 T03400200  RH  044%=      5-min Rain = 0
KCR1 151836Z 19012KT 34/20 A2974 RMK A01 T03410200  RH  044%=      5-min Rain = 0
KCR1 151837Z 18015KT 34/20 A2974 RMK A01 T03420197  RH  043%=      5-min Rain = 0
KCR1 151838Z 18016KT 34/20 A2974 RMK A01 T03410196  RH  043%=      5-min Rain = 0
KCR1 151839Z 18012KT 34/19 A2974 RMK A01 T03390194  RH  043%=      5-min Rain = 0
KCR1 151840Z 18012KT 34/20 A2974 RMK A01 T03390196  RH  043%=      5-min Rain = 0
KCR1 151841Z 18012KT 34/20 A2974 RMK A01 T03380196  RH  043%=      5-min Rain = 0
KCR1 151842Z 18011KT 34/20 A2974 RMK A01 T03390197  RH  043%=      5-min Rain = 0
KCR1 151843Z 19012G17KT 34/20 A2974 RMK A01 T03400201  RH  044%=      5-min Rain = 0
KCR1 151844Z 19016KT 34/20 A2974 RMK A01 T03420195  RH  042%=      5-min Rain = 0
KCR1 151845Z 20013KT 34/19 A2974 RMK A01 T03410192  RH  041%=      5-min Rain = 0
KCR1 151846Z 20015KT 34/19 A2974 RMK A01 T03410191  RH  041%=      5-min Rain = 0
KCR1 151847Z 19014KT 34/19 A2974 RMK A01 T03410191  RH  041%=      5-min Rain = 0
KCR1 151848Z 20013KT 34/19 A2974 RMK A01 T03420193  RH  041%=      5-min Rain = 0
KCR1 151849Z 20014KT 34/19 A2974 RMK A01 T03440192  RH  041%=      5-min Rain = 0
KCR1 151850Z 21014KT 34/19 A2974 RMK A01 T03440191  RH  041%=      5-min Rain = 0
KCR1 151851Z 21015KT 34/19 A2974 RMK A01 T03440193  RH  041%=      5-min Rain = 0
KCR1 151852Z 20016KT 34/19 A2974 RMK A01 T03440190  RH  040%=      5-min Rain = 0
KCR1 151853Z 19013KT 34/19 A2974 RMK A01 T03430189  RH  040%=      5-min Rain = 0
KCR1 151854Z 18015KT 34/19 A2974 RMK A01 T03430190  RH  041%=      5-min Rain = 0
KCR1 151855Z 18014KT 34/19 A2974 RMK A01 T03420188  RH  040%=      5-min Rain = 0
KCR1 151856Z 19013KT 34/19 A2974 RMK A01 T03420191  RH  041%=      5-min Rain = 0
KCR1 151857Z 18012KT 34/20 A2974 RMK A01 T03440197  RH  042%=      5-min Rain = 0
KCR1 151858Z 18011KT 35/20 A2974 RMK A01 T03450197  RH  042%=      5-min Rain = 0
KCR1 151859Z 17011KT 35/20 A2974 RMK A01 T03450195  RH  042%=      5-min Rain = 0
KCR1 151900Z 19012KT 34/20 A2974 RMK A01 T03430195  RH  042%=      5-min Rain = 0
KCR1 151901Z 18013KT 34/20 A2974 RMK A01 T03430195  RH  042%=      5-min Rain = 0
KCR1 151902Z 19013KT 34/19 A2974 RMK A01 T03430193  RH  041%=      5-min Rain = 0
KCR1 151903Z 19010KT 34/20 A2974 RMK A01 T03430197  RH  042%=      5-min Rain = 0
KCR1 151904Z 20012KT 35/20 A2974 RMK A01 T03460199  RH  042%=      5-min Rain = 0
KCR1 151905Z 20012G17KT 35/20 A2974 RMK A01 T03480197  RH  041%=      5-min Rain = 0
KCR1 151906Z 19015KT 35/20 A2974 RMK A01 T03480197  RH  041%=      5-min Rain = 0
KCR1 151907Z 20013KT 35/19 A2974 RMK A01 T03480192  RH  040%=      5-min Rain = 0
KCR1 151908Z 20011KT 35/19 A2974 RMK A01 T03460192  RH  040%=      5-min Rain = 0
KCR1 151909Z 20011KT 35/19 A2974 RMK A01 T03460194  RH  041%=      5-min Rain = 0
KCR1 151910Z 20013KT 35/19 A2974 RMK A01 T03470188  RH  039%=      5-min Rain = 0
KCR1 151911Z 19013KT 35/19 A2974 RMK A01 T03470188  RH  039%=      5-min Rain = 0
KCR1 151912Z 19011KT 35/19 A2973 RMK A01 T03470188  RH  039%=      5-min Rain = 0
KCR1 151913Z 19010G15KT 35/20 A2973 RMK A01 T03470195  RH  041%=      5-min Rain = 0
KCR1 151914Z 20013KT 35/19 A2973 RMK A01 T03480189  RH  039%=      5-min Rain = 0
KCR1 151915Z 19013KT 35/19 A2973 RMK A01 T03470191  RH  040%=      5-min Rain = 0
KCR1 151916Z 20014KT 35/19 A2973 RMK A01 T03470190  RH  040%=      5-min Rain = 0
KCR1 151917Z 21009KT 35/19 A2973 RMK A01 T03470193  RH  040%=      5-min Rain = 0
KCR1 151918Z 19010KT 35/20 A2973 RMK A01 T03490198  RH  041%=      5-min Rain = 0
KCR1 151919Z 19013G18KT 35/20 A2973 RMK A01 T03500200  RH  042%=      5-min Rain = 0
KCR1 151920Z 19015KT 35/19 A2974 RMK A01 T03510193  RH  040%=      5-min Rain = 0
KCR1 151921Z 19012KT 35/19 A2973 RMK A01 T03500194  RH  040%=      5-min Rain = 0
KCR1 151922Z 20010KT 35/19 A2973 RMK A01 T03490192  RH  040%=      5-min Rain = 0
KCR1 151923Z 20010KT 35/19 A2973 RMK A01 T03480194  RH  040%=      5-min Rain = 0
KCR1 151924Z 19014KT 35/20 A2973 RMK A01 T03490197  RH  041%=      5-min Rain = 0
KCR1 151925Z 20016KT 35/19 A2973 RMK A01 T03500194  RH  040%=      5-min Rain = 0
KCR1 151926Z 20016KT 35/19 A2973 RMK A01 T03510192  RH  039%=      5-min Rain = 0
KCR1 151927Z 20015KT 35/19 A2973 RMK A01 T03490190  RH  039%=      5-min Rain = 0
KCR1 151928Z 20013KT 35/19 A2973 RMK A01 T03490192  RH  040%=      5-min Rain = 0
KCR1 151929Z 19012KT 35/19 A2973 RMK A01 T03490192  RH  040%=      5-min Rain = 0
KCR1 151930Z 18013KT 35/19 A2973 RMK A01 T03490192  RH  040%=      5-min Rain = 0
KCR1 151931Z 19012KT 35/19 A2973 RMK A01 T03470193  RH  041%=      5-min Rain = 0
KCR1 151932Z 21013KT 35/19 A2973 RMK A01 T03480193  RH  040%=      5-min Rain = 0
KCR1 151933Z 20011G18KT 35/20 A2973 RMK A01 T03510198  RH  041%=      5-min Rain = 0
KCR1 151934Z 20015KT 35/19 A2973 RMK A01 T03540189  RH  038%=      5-min Rain = 0
KCR1 151935Z 20013KT 35/18 A2973 RMK A01 T03530183  RH  037%=      5-min Rain = 0
KCR1 151936Z 19012KT 35/19 A2973 RMK A01 T03530189  RH  038%=      5-min Rain = 0
KCR1 151937Z 20012KT 35/19 A2973 RMK A01 T03530185  RH  037%=      5-min Rain = 0
KCR1 151938Z 19012KT 35/19 A2973 RMK A01 T03530191  RH  039%=      5-min Rain = 0
KCR1 151939Z 20013KT 35/19 A2973 RMK A01 T03540192  RH  039%=      5-min Rain = 0
KCR1 151940Z 20015KT 36/19 A2973 RMK A01 T03560187  RH  037%=      5-min Rain = 0
KCR1 151941Z 20013KT 35/19 A2973 RMK A01 T03520190  RH  038%=      5-min Rain = 0
KCR1 151942Z 21012KT 35/19 A2973 RMK A01 T03520193  RH  039%=      5-min Rain = 0
KCR1 151943Z 20010KT 35/19 A2973 RMK A01 T03520194  RH  039%=      5-min Rain = 0
KCR1 151944Z 21012KT 35/19 A2973 RMK A01 T03530190  RH  038%=      5-min Rain = 0
KCR1 151945Z 20010KT 35/19 A2973 RMK A01 T03520192  RH  039%=      5-min Rain = 0
KCR1 151946Z 21013KT 35/19 A2972 RMK A01 T03530191  RH  039%=      5-min Rain = 0
KCR1 151947Z 20013KT 35/19 A2972 RMK A01 T03540193  RH  039%=      5-min Rain = 0
KCR1 151948Z 19015KT 36/19 A2973 RMK A01 T03550193  RH  039%=      5-min Rain = 0
KCR1 151949Z 17013KT 36/19 A2973 RMK A01 T03550189  RH  038%=      5-min Rain = 0
KCR1 151950Z 18010KT 35/19 A2972 RMK A01 T03520187  RH  038%=      5-min Rain = 0
KCR1 151951Z 18011G16KT 35/19 A2972 RMK A01 T03520194  RH  040%=      5-min Rain = 0
KCR1 151952Z 18013KT 35/20 A2972 RMK A01 T03530195  RH  039%=      5-min Rain = 0
KCR1 151953Z 18014KT 35/19 A2972 RMK A01 T03540189  RH  038%=      5-min Rain = 0
KCR1 151954Z 17013KT 35/19 A2972 RMK A01 T03540190  RH  038%=      5-min Rain = 0
KCR1 151955Z 18011KT 35/19 A2972 RMK A01 T03540190  RH  038%=      5-min Rain = 0
KCR1 151956Z 19011KT 35/20 A2972 RMK A01 T03540196  RH  040%=      5-min Rain = 0
KCR1 151957Z 21014KT 36/19 A2972 RMK A01 T03570191  RH  038%=      5-min Rain = 0
KCR1 151958Z 20013KT 36/19 A2972 RMK A01 T03570185  RH  036%=      5-min Rain = 0
KCR1 151959Z 21014KT 36/19 A2972 RMK A01 T03560190  RH  038%=      5-min Rain = 0
KCR1 152000Z 21013KT 36/18 A2972 RMK A01 T03560183  RH  036%=      5-min Rain = 0
KCR1 152001Z 20012KT 36/19 A2972 RMK A01 T03560188  RH  037%=      5-min Rain = 0
KCR1 152002Z 21013KT 36/19 A2972 RMK A01 T03560185  RH  037%=      5-min Rain = 0
KCR1 152003Z 22012KT 36/19 A2972 RMK A01 T03570189  RH  037%=      5-min Rain = 0
KCR1 152004Z 21013KT 36/19 A2972 RMK A01 T03580186  RH  036%=      5-min Rain = 0
KCR1 152005Z 19013KT 36/18 A2973 RMK A01 T03580184  RH  036%=      5-min Rain = 0
KCR1 152006Z 20014KT 36/18 A2973 RMK A01 T03580181  RH  035%=      5-min Rain = 0
KCR1 152007Z 19014KT 36/18 A2973 RMK A01 T03580179  RH  035%=      5-min Rain = 0
KCR1 152008Z 19016KT 36/18 A2973 RMK A01 T03570180  RH  035%=      5-min Rain = 0
KCR1 152009Z 20013KT 36/18 A2973 RMK A01 T03570178  RH  035%=      5-min Rain = 0
KCR1 152010Z 20010KT 36/18 A2973 RMK A01 T03550179  RH  035%=      5-min Rain = 0
KCR1 152011Z 20012KT 36/18 A2973 RMK A01 T03550181  RH  036%=      5-min Rain = 0
KCR1 152012Z 21013KT 36/18 A2973 RMK A01 T03560181  RH  036%=      5-min Rain = 0
KCR1 152013Z 20010KT 36/18 A2972 RMK A01 T03560181  RH  036%=      5-min Rain = 0
KCR1 152014Z 20009G14KT 36/19 A2972 RMK A01 T03570187  RH  037%=      5-min Rain = 0
KCR1 152015Z 18013KT 36/19 A2972 RMK A01 T03580188  RH  037%=      5-min Rain = 0
KCR1 152016Z 19012KT 36/18 A2972 RMK A01 T03570183  RH  036%=      5-min Rain = 0
KCR1 152017Z 19011KT 36/18 A2972 RMK A01 T03550184  RH  036%=      5-min Rain = 0
KCR1 152018Z 20012KT 36/19 A2972 RMK A01 T03560185  RH  037%=      5-min Rain = 0
KCR1 152019Z 20011KT 36/18 A2972 RMK A01 T03560183  RH  036%=      5-min Rain = 0
KCR1 152020Z 20013KT 36/18 A2972 RMK A01 T03580184  RH  036%=      5-min Rain = 0
KCR1 152021Z 19011KT 36/19 A2972 RMK A01 T03590188  RH  037%=      5-min Rain = 0
KCR1 152022Z 21013KT 36/19 A2972 RMK A01 T03610188  RH  036%=      5-min Rain = 0
KCR1 152023Z 20015KT 36/18 A2972 RMK A01 T03620184  RH  035%=      5-min Rain = 0
KCR1 152024Z 21014KT 36/19 A2972 RMK A01 T03610185  RH  036%=      5-min Rain = 0
KCR1 152025Z 21012KT 36/19 A2972 RMK A01 T03610187  RH  036%=      5-min Rain = 0
KCR1 152026Z 19011KT 36/19 A2972 RMK A01 T03620189  RH  036%=      5-min Rain = 0
KCR1 152027Z 20013KT 36/19 A2972 RMK A01 T03620188  RH  036%=      5-min Rain = 0
KCR1 152028Z 20014KT 36/19 A2972 RMK A01 T03620188  RH  036%=      5-min Rain = 0
KCR1 152029Z 19014KT 36/19 A2972 RMK A01 T03620187  RH  036%=      5-min Rain = 0
KCR1 152030Z 21015KT 36/19 A2972 RMK A01 T03620185  RH  035%=      5-min Rain = 0
KCR1 152031Z 20013KT 36/18 A2972 RMK A01 T03620184  RH  035%=      5-min Rain = 0
KCR1 152032Z 19013KT 36/18 A2972 RMK A01 T03610184  RH  035%=      5-min Rain = 0
KCR1 152033Z 19016KT 36/19 A2972 RMK A01 T03590185  RH  036%=      5-min Rain = 0
KCR1 152034Z 19017KT 36/18 A2972 RMK A01 T03590184  RH  036%=      5-min Rain = 0
KCR1 152035Z 19018KT 36/18 A2972 RMK A01 T03590184  RH  036%=      5-min Rain = 0
KCR1 152036Z 19015KT 36/19 A2972 RMK A01 T03600188  RH  037%=      5-min Rain = 0
KCR1 152037Z 20014KT 36/19 A2972 RMK A01 T03610190  RH  037%=      5-min Rain = 0
KCR1 152038Z 19015KT 36/19 A2972 RMK A01 T03630186  RH  035%=      5-min Rain = 0
KCR1 152039Z 20014KT 36/19 A2972 RMK A01 T03630185  RH  035%=      5-min Rain = 0
KCR1 152040Z 19013KT 36/18 A2972 RMK A01 T03620184  RH  035%=      5-min Rain = 0
KCR1 152041Z 19013KT 36/18 A2972 RMK A01 T03610184  RH  035%=      5-min Rain = 0
KCR1 152042Z 18011KT 36/18 A2972 RMK A01 T03610183  RH  035%=      5-min Rain = 0
KCR1 152043Z 19010KT 36/19 A2972 RMK A01 T03600189  RH  037%=      5-min Rain = 0
KCR1 152044Z 19013KT 36/19 A2972 RMK A01 T03620185  RH  036%=      5-min Rain = 0
KCR1 152045Z 19013KT 36/19 A2972 RMK A01 T03620186  RH  036%=      5-min Rain = 0
KCR1 152046Z 18013KT 36/19 A2971 RMK A01 T03620186  RH  036%=      5-min Rain = 0
KCR1 152047Z 20015G21KT 36/19 A2971 RMK A01 T03610187  RH  036%=      5-min Rain = 0
KCR1 152048Z 19013KT 36/19 A2972 RMK A01 T03620186  RH  036%=      5-min Rain = 0
KCR1 152049Z 19011KT 36/18 A2972 RMK A01 T03630184  RH  035%=      5-min Rain = 0
KCR1 152050Z 18013KT 36/18 A2971 RMK A01 T03630184  RH  035%=      5-min Rain = 0
KCR1 152051Z 19014KT 36/18 A2971 RMK A01 T03620182  RH  035%=      5-min Rain = 0
KCR1 152052Z 20013KT 36/19 A2971 RMK A01 T03620185  RH  035%=      5-min Rain = 0
KCR1 152053Z 20015KT 36/18 A2971 RMK A01 T03640180  RH  034%=      5-min Rain = 0
KCR1 152054Z 20014KT 36/18 A2971 RMK A01 T03640183  RH  035%=      5-min Rain = 0
KCR1 152055Z 20012KT 36/19 A2971 RMK A01 T03640186  RH  035%=      5-min Rain = 0
KCR1 152056Z 18013KT 37/19 A2971 RMK A01 T03650189  RH  036%=      5-min Rain = 0
KCR1 152057Z 18014KT 37/18 A2971 RMK A01 T03650184  RH  035%=      5-min Rain = 0
KCR1 152058Z 20013G18KT 36/19 A2972 RMK A01 T03640188  RH  036%=      5-min Rain = 0
KCR1 152059Z 21009KT 37/19 A2972 RMK A01 T03650187  RH  035%=      5-min Rain = 0
KCR1 152100Z 20011KT 37/19 A2971 RMK A01 T03660189  RH  036%=      5-min Rain = 0
KCR1 152101Z 19012KT 37/19 A2971 RMK A01 T03660186  RH  035%=      5-min Rain = 0
KCR1 152102Z 18012KT 37/19 A2971 RMK A01 T03660187  RH  035%=      5-min Rain = 0
KCR1 152103Z 18011KT 37/18 A2971 RMK A01 T03650184  RH  035%=      5-min Rain = 0
KCR1 152104Z 17010KT 36/19 A2971 RMK A01 T03630185  RH  035%=      5-min Rain = 0
KCR1 152105Z 18014KT 36/19 A2971 RMK A01 T03640189  RH  036%=      5-min Rain = 0
KCR1 152106Z 20013KT 36/18 A2971 RMK A01 T03640181  RH  034%=      5-min Rain = 0
KCR1 152107Z 20012KT 36/18 A2971 RMK A01 T03640183  RH  035%=      5-min Rain = 0
KCR1 152108Z 21013KT 37/19 A2971 RMK A01 T03650190  RH  036%=      5-min Rain = 0
KCR1 152109Z 22011KT 37/19 A2971 RMK A01 T03670187  RH  035%=      5-min Rain = 0
KCR1 152110Z 21011KT 37/19 A2971 RMK A01 T03670188  RH  035%=      5-min Rain = 0
KCR1 152111Z 20015KT 37/18 A2971 RMK A01 T03670183  RH  034%=      5-min Rain = 0
KCR1 152112Z 18015KT 37/18 A2971 RMK A01 T03670175  RH  032%=      5-min Rain = 0
KCR1 152113Z 18012KT 37/18 A2971 RMK A01 T03650176  RH  033%=      5-min Rain = 0
KCR1 152114Z 18012KT 36/18 A2971 RMK A01 T03630181  RH  034%=      5-min Rain = 0
KCR1 152115Z 19012G17KT 36/19 A2971 RMK A01 T03640189  RH  036%=      5-min Rain = 0
KCR1 152116Z 18014KT 37/18 A2971 RMK A01 T03660182  RH  034%=      5-min Rain = 0
KCR1 152117Z 18012KT 37/18 A2971 RMK A01 T03660181  RH  034%=      5-min Rain = 0
KCR1 152118Z 18010KT 37/19 A2971 RMK A01 T03650185  RH  035%=      5-min Rain = 0
KCR1 152119Z 19012KT 37/19 A2971 RMK A01 T03660190  RH  036%=      5-min Rain = 0
KCR1 152120Z 20013KT 37/18 A2971 RMK A01 T03670184  RH  034%=      5-min Rain = 0
KCR1 152121Z 21011KT 37/18 A2971 RMK A01 T03670184  RH  034%=      5-min Rain = 0
KCR1 152122Z 20011KT 37/19 A2971 RMK A01 T03680186  RH  035%=      5-min Rain = 0
KCR1 152123Z 19013KT 37/18 A2971 RMK A01 T03690183  RH  034%=      5-min Rain = 0
KCR1 152124Z 18012KT 37/18 A2971 RMK A01 T03680177  RH  033%=      5-min Rain = 0
KCR1 152125Z 18011KT 37/18 A2971 RMK A01 T03660182  RH  034%=      5-min Rain = 0
KCR1 152126Z 18013KT 37/18 A2971 RMK A01 T03660180  RH  034%=      5-min Rain = 0
KCR1 152127Z 18011KT 37/18 A2971 RMK A01 T03670178  RH  033%=      5-min Rain = 0
KCR1 152128Z 19011KT 37/18 A2971 RMK A01 T03650183  RH  034%=      5-min Rain = 0
KCR1 152129Z 18012KT 37/18 A2971 RMK A01 T03660180  RH  034%=      5-min Rain = 0
KCR1 152130Z 19010KT 37/18 A2971 RMK A01 T03660183  RH  034%=      5-min Rain = 0
KCR1 152131Z 19010KT 37/18 A2971 RMK A01 T03670184  RH  034%=      5-min Rain = 0
KCR1 152132Z 18011KT 37/18 A2971 RMK A01 T03680181  RH  033%=      5-min Rain = 0
KCR1 152133Z 19010KT 37/18 A2971 RMK A01 T03670182  RH  034%=      5-min Rain = 0
KCR1 152134Z 20008KT 37/18 A2971 RMK A01 T03670183  RH  034%=      5-min Rain = 0
KCR1 152135Z 20009KT 37/18 A2971 RMK A01 T03680180  RH  033%=      5-min Rain = 0
KCR1 152136Z 19010KT 37/18 A2971 RMK A01 T03680182  RH  034%=      5-min Rain = 0
KCR1 152137Z 19010KT 37/18 A297 RMK A01 T03680181  RH  033%=      5-min Rain = 0
KCR1 152138Z 19013G18KT 37/18 A297 RMK A01 T03680183  RH  034%=      5-min Rain = 0
KCR1 152139Z 20015KT 37/18 A2971 RMK A01 T03690178  RH  033%=      5-min Rain = 0
KCR1 152140Z 21012KT 37/18 A2971 RMK A01 T03690178  RH  033%=      5-min Rain = 0
KCR1 152141Z 22011KT 37/18 A2971 RMK A01 T03680177  RH  033%=      5-min Rain = 0
KCR1 152142Z 21010KT 37/18 A2971 RMK A01 T03680175  RH  032%=      5-min Rain = 0
KCR1 152143Z 22007KT 37/18 A2971 RMK A01 T03690179  RH  033%=      5-min Rain = 0
KCR1 152144Z 22009KT 37/18 A2971 RMK A01 T03700175  RH  032%=      5-min Rain = 0
KCR1 152145Z 22007KT 37/18 A297 RMK A01 T03700180  RH  033%=      5-min Rain = 0
KCR1 152146Z 20009KT 37/18 A297 RMK A01 T03700183  RH  033%=      5-min Rain = 0
KCR1 152147Z 21014KT 37/18 A297 RMK A01 T03710179  RH  032%=      5-min Rain = 0
KCR1 152148Z 20012KT 37/18 A2971 RMK A01 T03710182  RH  033%=      5-min Rain = 0
KCR1 152149Z 21013KT 37/17 A2971 RMK A01 T03710173  RH  031%=      5-min Rain = 0
KCR1 152150Z 21013KT 37/18 A2971 RMK A01 T03710175  RH  032%=      5-min Rain = 0
KCR1 152151Z 21011KT 37/17 A2971 RMK A01 T03700169  RH  031%=      5-min Rain = 0
KCR1 152152Z 20009KT 37/17 A297 RMK A01 T03690170  RH  031%=      5-min Rain = 0
KCR1 152153Z 19009KT 37/18 A297 RMK A01 T03680179  RH  033%=      5-min Rain = 0
KCR1 152154Z 19009KT 37/18 A297 RMK A01 T03700176  RH  032%=      5-min Rain = 0
KCR1 152155Z 17008KT 37/19 A297 RMK A01 T03700188  RH  035%=      5-min Rain = 0
KCR1 152156Z 18009KT 37/19 A297 RMK A01 T03700186  RH  034%=      5-min Rain = 0
KCR1 152157Z 19009KT 37/19 A297 RMK A01 T03700190  RH  035%=      5-min Rain = 0
KCR1 152158Z 19010KT 37/19 A297 RMK A01 T03710188  RH  035%=      5-min Rain = 0
KCR1 152159Z 19009KT 37/19 A297 RMK A01 T03710190  RH  035%=      5-min Rain = 0
KCR1 152200Z 17008KT 37/19 A297 RMK A01 T03710190  RH  035%=      5-min Rain = 0
KCR1 152201Z 17010KT 37/19 A297 RMK A01 T03710192  RH  035%=      5-min Rain = 0
KCR1 152202Z 18012KT 37/19 A297 RMK A01 T03710188  RH  034%=      5-min Rain = 0
KCR1 152203Z 19015KT 37/19 A297 RMK A01 T03700186  RH  034%=      5-min Rain = 0
KCR1 152204Z 19011KT 37/18 A297 RMK A01 T03690183  RH  034%=      5-min Rain = 0
KCR1 152205Z 19009KT 37/19 A297 RMK A01 T03680185  RH  034%=      5-min Rain = 0
KCR1 152206Z 20008KT 37/19 A297 RMK A01 T03680185  RH  034%=      5-min Rain = 0
KCR1 152207Z 18009KT 37/19 A297 RMK A01 T03690191  RH  035%=      5-min Rain = 0
KCR1 152208Z 17012KT 37/19 A297 RMK A01 T03700188  RH  035%=      5-min Rain = 0
KCR1 152209Z 17011KT 37/18 A297 RMK A01 T03700182  RH  033%=      5-min Rain = 0
KCR1 152210Z 17010KT 37/18 A297 RMK A01 T03680182  RH  033%=      5-min Rain = 0
KCR1 152211Z 18009KT 37/19 A297 RMK A01 T03680189  RH  035%=      5-min Rain = 0
KCR1 152212Z 17012G17KT 37/19 A297 RMK A01 T03690185  RH  034%=      5-min Rain = 0
KCR1 152213Z 18016KT 37/18 A297 RMK A01 T03690184  RH  034%=      5-min Rain = 0
KCR1 152214Z 19013KT 37/18 A297 RMK A01 T03680181  RH  033%=      5-min Rain = 0
KCR1 152215Z 18010KT 37/18 A297 RMK A01 T03680183  RH  034%=      5-min Rain = 0
KCR1 152216Z 19010KT 37/19 A297 RMK A01 T03680185  RH  034%=      5-min Rain = 0
KCR1 152217Z 19010KT 37/18 A297 RMK A01 T03680182  RH  034%=      5-min Rain = 0
KCR1 152218Z 19013KT 37/18 A297 RMK A01 T03680183  RH  034%=      5-min Rain = 0
KCR1 152219Z 17011KT 37/18 A297 RMK A01 T03650180  RH  034%=      5-min Rain = 0
KCR1 152220Z 17013KT 36/19 A297 RMK A01 T03640185  RH  035%=      5-min Rain = 0
KCR1 152221Z 19013KT 36/18 A297 RMK A01 T03640181  RH  034%=      5-min Rain = 0
KCR1 152222Z 18014KT 36/18 A297 RMK A01 T03640178  RH  034%=      5-min Rain = 0
KCR1 152223Z 19012KT 36/18 A297 RMK A01 T03630183  RH  035%=      5-min Rain = 0
KCR1 152224Z 18011KT 36/19 A297 RMK A01 T03600186  RH  036%=      5-min Rain = 0
KCR1 152225Z 18011KT 36/19 A297 RMK A01 T03580194  RH  038%=      5-min Rain = 0
KCR1 152226Z 17012KT 36/20 A297 RMK A01 T03550201  RH  041%=      5-min Rain = 0
KCR1 152227Z 18012KT 35/21 A297 RMK A01 T03530209  RH  043%=      5-min Rain = 0
KCR1 152228Z 16008KT 35/21 A297 RMK A01 T03510213  RH  045%=      5-min Rain = 0
KCR1 152229Z 16007KT 35/22 A297 RMK A01 T03490216  RH  046%=      5-min Rain = 0
KCR1 152230Z 16010KT 35/21 A297 RMK A01 T03470214  RH  046%=      5-min Rain = 0
KCR1 152231Z 15010KT 35/21 A297 RMK A01 T03460214  RH  046%=      5-min Rain = 0
KCR1 152232Z 16011KT 35/21 A297 RMK A01 T03460210  RH  045%=      5-min Rain = 0
KCR1 152233Z 17013KT 35/20 A297 RMK A01 T03460202  RH  043%=      5-min Rain = 0
KCR1 152234Z 17011KT 35/20 A297 RMK A01 T03470202  RH  043%=      5-min Rain = 0
KCR1 152235Z 18009KT 35/20 A297 RMK A01 T03480196  RH  041%=      5-min Rain = 0
KCR1 152236Z 18007KT 35/20 A297 RMK A01 T03480195  RH  041%=      5-min Rain = 0
KCR1 152237Z 18008KT 35/19 A297 RMK A01 T03480194  RH  040%=      5-min Rain = 0
KCR1 152238Z 17007KT 35/20 A297 RMK A01 T03480195  RH  041%=      5-min Rain = 0
KCR1 152239Z 17009KT 35/19 A297 RMK A01 T03480186  RH  039%=      5-min Rain = 0
KCR1 152240Z 17008KT 35/19 A297 RMK A01 T03480185  RH  038%=      5-min Rain = 0
KCR1 152241Z 17009KT 35/19 A297 RMK A01 T03480190  RH  039%=      5-min Rain = 0
KCR1 152242Z 17009KT 35/20 A297 RMK A01 T03490198  RH  041%=      5-min Rain = 0
KCR1 152243Z 17012G17KT 35/21 A297 RMK A01 T03500206  RH  043%=      5-min Rain = 0
KCR1 152244Z 16015KT 35/21 A2969 RMK A01 T03500213  RH  045%=      5-min Rain = 0
KCR1 152245Z 16014KT 35/21 A2969 RMK A01 T03520214  RH  045%=      5-min Rain = 0
KCR1 152246Z 16015KT 35/22 A2969 RMK A01 T03530216  RH  045%=      5-min Rain = 0
KCR1 152247Z 16013KT 35/22 A2969 RMK A01 T03540217  RH  045%=      5-min Rain = 0
KCR1 152248Z 16011KT 35/22 A2969 RMK A01 T03540218  RH  045%=      5-min Rain = 0
KCR1 152249Z 16014KT 35/22 A2969 RMK A01 T03530220  RH  046%=      5-min Rain = 0
KCR1 152250Z 16014KT 35/22 A2969 RMK A01 T03530217  RH  045%=      5-min Rain = 0
KCR1 152251Z 16014G19KT 35/22 A2969 RMK A01 T03520215  RH  045%=      5-min Rain = 0
KCR1 152252Z 16016KT 35/22 A2969 RMK A01 T03500215  RH  045%=      5-min Rain = 0
KCR1 152253Z 16013KT 35/22 A2969 RMK A01 T03480216  RH  046%=      5-min Rain = 0
KCR1 152254Z 16015KT 35/21 A2969 RMK A01 T03470214  RH  046%=      5-min Rain = 0
KCR1 152255Z 15012KT 35/21 A2969 RMK A01 T03460213  RH  046%=      5-min Rain = 0
KCR1 152256Z 15014KT 35/22 A2969 RMK A01 T03450216  RH  047%=      5-min Rain = 0
KCR1 152257Z 15015KT 34/22 A2969 RMK A01 T03440216  RH  047%=      5-min Rain = 0
KCR1 152258Z 15014KT 34/22 A2969 RMK A01 T03430215  RH  047%=      5-min Rain = 0
KCR1 152259Z 16014KT 34/22 A2969 RMK A01 T03420217  RH  048%=      5-min Rain = 0
KCR1 152300Z 16015KT 34/22 A2969 RMK A01 T03410215  RH  048%=      5-min Rain = 0
KCR1 152301Z 16014KT 34/22 A2969 RMK A01 T03410217  RH  048%=      5-min Rain = 0
KCR1 152302Z 16016KT 34/21 A2969 RMK A01 T03410214  RH  048%=      5-min Rain = 0
KCR1 152303Z 16013G18KT 34/21 A2969 RMK A01 T03410214  RH  048%=      5-min Rain = 0
KCR1 152304Z 16016KT 34/21 A2969 RMK A01 T03410214  RH  048%=      5-min Rain = 0
KCR1 152305Z 16015KT 34/21 A2969 RMK A01 T03430214  RH  047%=      5-min Rain = 0
KCR1 152306Z 16013KT 35/22 A2969 RMK A01 T03450215  RH  047%=      5-min Rain = 0
KCR1 152307Z 16013KT 35/22 A2969 RMK A01 T03450217  RH  047%=      5-min Rain = 0
KCR1 152308Z 16015KT 35/22 A2969 RMK A01 T03450216  RH  047%=      5-min Rain = 0
KCR1 152309Z 16015KT 34/22 A2969 RMK A01 T03440215  RH  047%=      5-min Rain = 0
KCR1 152310Z 16015KT 35/22 A2969 RMK A01 T03450217  RH  048%=      5-min Rain = 0
KCR1 152311Z 15017KT 35/22 A2969 RMK A01 T03470217  RH  047%=      5-min Rain = 0
KCR1 152312Z 15019KT 35/22 A2969 RMK A01 T03470215  RH  046%=      5-min Rain = 0
KCR1 152313Z 15017KT 35/22 A2969 RMK A01 T03460215  RH  046%=      5-min Rain = 0
KCR1 152314Z 16020KT 35/21 A2969 RMK A01 T03450214  RH  047%=      5-min Rain = 0
KCR1 152315Z 16019KT 34/21 A2969 RMK A01 T03440213  RH  047%=      5-min Rain = 0
KCR1 152316Z 16015KT 34/21 A2969 RMK A01 T03440214  RH  047%=      5-min Rain = 0
KCR1 152317Z 16015KT 34/22 A2968 RMK A01 T03440216  RH  047%=      5-min Rain = 0
KCR1 152318Z 15014KT 34/22 A2968 RMK A01 T03440217  RH  048%=      5-min Rain = 0
KCR1 152319Z 15018KT 34/22 A2968 RMK A01 T03440218  RH  048%=      5-min Rain = 0
KCR1 152320Z 15016KT 34/22 A2968 RMK A01 T03430215  RH  047%=      5-min Rain = 0
KCR1 152321Z 15018KT 34/22 A2968 RMK A01 T03410217  RH  048%=      5-min Rain = 0
KCR1 152322Z 15019KT 34/21 A2968 RMK A01 T03400214  RH  048%=      5-min Rain = 0
KCR1 152323Z 15017KT 34/22 A2968 RMK A01 T03380215  RH  048%=      5-min Rain = 0
KCR1 152324Z 15014KT 34/22 A2968 RMK A01 T03380216  RH  049%=      5-min Rain = 0
KCR1 152325Z 14015KT 34/22 A2968 RMK A01 T03370216  RH  049%=      5-min Rain = 0
KCR1 152326Z 15017G22KT 34/22 A2968 RMK A01 T03370215  RH  049%=      5-min Rain = 0
KCR1 152327Z 15015KT 34/22 A2968 RMK A01 T03360216  RH  049%=      5-min Rain = 0
KCR1 152328Z 15015KT 34/22 A2968 RMK A01 T03350216  RH  050%=      5-min Rain = 0
KCR1 152329Z 15016KT 34/22 A2968 RMK A01 T03350217  RH  050%=      5-min Rain = 0
KCR1 152330Z 15014KT 33/22 A2968 RMK A01 T03340218  RH  051%=      5-min Rain = 0
KCR1 152331Z 14013KT 33/22 A2968 RMK A01 T03330221  RH  052%=      5-min Rain = 0
KCR1 152332Z 14014KT 33/22 A2969 RMK A01 T03320221  RH  052%=      5-min Rain = 0
KCR1 152333Z 15012KT 33/22 A2969 RMK A01 T03320223  RH  053%=      5-min Rain = 0
KCR1 152334Z 15012KT 33/23 A2969 RMK A01 T03310225  RH  054%=      5-min Rain = 0
KCR1 152335Z 15012KT 33/23 A2969 RMK A01 T03300226  RH  054%=      5-min Rain = 0
KCR1 152336Z 14014KT 33/23 A2969 RMK A01 T03280226  RH  055%=      5-min Rain = 0
KCR1 152337Z 15012KT 33/23 A2969 RMK A01 T03270227  RH  055%=      5-min Rain = 0
KCR1 152338Z 15011KT 33/23 A2969 RMK A01 T03270226  RH  056%=      5-min Rain = 0
KCR1 152339Z 15012KT 33/23 A2969 RMK A01 T03260226  RH  056%=      5-min Rain = 0
KCR1 152340Z 14012KT 33/23 A2969 RMK A01 T03260226  RH  056%=      5-min Rain = 0
KCR1 152341Z 15013KT 33/23 A2969 RMK A01 T03260225  RH  056%=      5-min Rain = 0
KCR1 152342Z 15011KT 33/23 A2969 RMK A01 T03260226  RH  056%=      5-min Rain = 0
KCR1 152343Z 14013KT 33/23 A2969 RMK A01 T03250225  RH  056%=      5-min Rain = 0
KCR1 152344Z 15011KT 33/23 A2969 RMK A01 T03250225  RH  056%=      5-min Rain = 0
KCR1 152345Z 15012KT 33/23 A2969 RMK A01 T03250225  RH  056%=      5-min Rain = 0
KCR1 152346Z 14010KT 33/23 A2969 RMK A01 T03250226  RH  056%=      5-min Rain = 0
KCR1 152347Z 15012KT 33/23 A2969 RMK A01 T03250227  RH  056%=      5-min Rain = 0
KCR1 152348Z 15013KT 33/23 A2969 RMK A01 T03250227  RH  056%=      5-min Rain = 0
KCR1 152349Z 14013KT 33/23 A2969 RMK A01 T03250226  RH  056%=      5-min Rain = 0
KCR1 152350Z 14012KT 32/23 A2969 RMK A01 T03240226  RH  056%=      5-min Rain = 0
KCR1 152351Z 15011KT 32/23 A2969 RMK A01 T03240227  RH  057%=      5-min Rain = 0
KCR1 152352Z 15011KT 32/23 A297 RMK A01 T03230227  RH  057%=      5-min Rain = 0
KCR1 152353Z 14011KT 32/23 A297 RMK A01 T03230228  RH  057%=      5-min Rain = 0
KCR1 152354Z 14012KT 32/23 A297 RMK A01 T03230228  RH  057%=      5-min Rain = 0
KCR1 152355Z 14011KT 32/23 A297 RMK A01 T03230228  RH  057%=      5-min Rain = 0
KCR1 152356Z 14013KT 32/23 A297 RMK A01 T03220227  RH  057%=      5-min Rain = 0
KCR1 152357Z 14011KT 32/23 A297 RMK A01 T03220227  RH  057%=      5-min Rain = 0
KCR1 152358Z 14011KT 32/23 A297 RMK A01 T03230227  RH  057%=      5-min Rain = 0
KCR1 152359Z 14013KT 32/23 A297 RMK A01 T03220227  RH  057%=      5-min Rain = 0
KCR1 160000Z 14013KT 32/23 A297 RMK A01 T03220227  RH  057%=      5-min Rain = 0
KCR1 160001Z 13012KT 32/23 A297 RMK A01 T03220227  RH  057%=      5-min Rain = 0
KCR1 160002Z 14010KT 32/23 A297 RMK A01 T03210228  RH  058%=      5-min Rain = 0
KCR1 160003Z 14010KT 32/23 A297 RMK A01 T03210229  RH  058%=      5-min Rain = 0
KCR1 160004Z 14013KT 32/23 A297 RMK A01 T03200227  RH  058%=      5-min Rain = 0
KCR1 160005Z 14010KT 32/23 A297 RMK A01 T03200227  RH  058%=      5-min Rain = 0
KCR1 160006Z 14010KT 32/23 A297 RMK A01 T03200228  RH  058%=      5-min Rain = 0
KCR1 160007Z 14009KT 32/23 A297 RMK A01 T03190229  RH  059%=      5-min Rain = 0
KCR1 160008Z 14012KT 32/23 A297 RMK A01 T03190227  RH  058%=      5-min Rain = 0
KCR1 160009Z 14010KT 32/23 A297 RMK A01 T03180226  RH  058%=      5-min Rain = 0
KCR1 160010Z 14012KT 32/23 A297 RMK A01 T03180226  RH  058%=      5-min Rain = 0
KCR1 160011Z 14010KT 32/23 A297 RMK A01 T03180226  RH  058%=      5-min Rain = 0
KCR1 160012Z 14010KT 32/23 A297 RMK A01 T03180227  RH  059%=      5-min Rain = 0
KCR1 160013Z 13010KT 32/23 A297 RMK A01 T03180228  RH  059%=      5-min Rain = 0
KCR1 160014Z 13011KT 32/23 A297 RMK A01 T03170227  RH  059%=      5-min Rain = 0
KCR1 160015Z 14009KT 32/23 A297 RMK A01 T03170227  RH  059%=      5-min Rain = 0
KCR1 160016Z 14008KT 32/23 A297 RMK A01 T03170228  RH  059%=      5-min Rain = 0
KCR1 160017Z 13009KT 32/23 A297 RMK A01 T03160228  RH  060%=      5-min Rain = 0
KCR1 160018Z 13010KT 32/23 A297 RMK A01 T03160228  RH  060%=      5-min Rain = 0
KCR1 160019Z 13009KT 32/23 A297 RMK A01 T03160228  RH  060%=      5-min Rain = 0
KCR1 160020Z 13011KT 32/23 A297 RMK A01 T03150228  RH  060%=      5-min Rain = 0
KCR1 160021Z 13009KT 32/23 A297 RMK A01 T03150228  RH  060%=      5-min Rain = 0
KCR1 160022Z 13010KT 32/23 A297 RMK A01 T03150227  RH  060%=      5-min Rain = 0
KCR1 160023Z 13011KT 32/23 A297 RMK A01 T03150226  RH  060%=      5-min Rain = 0
KCR1 160024Z 13010KT 32/23 A297 RMK A01 T03150227  RH  060%=      5-min Rain = 0
KCR1 160025Z 14009KT 32/23 A297 RMK A01 T03150227  RH  060%=      5-min Rain = 0
KCR1 160026Z 14009KT 31/23 A297 RMK A01 T03140227  RH  060%=      5-min Rain = 0
KCR1 160027Z 14009KT 31/23 A2971 RMK A01 T03140226  RH  060%=      5-min Rain = 0
KCR1 160028Z 14008KT 31/23 A2971 RMK A01 T03130227  RH  060%=      5-min Rain = 0
KCR1 160029Z 14008KT 31/23 A2971 RMK A01 T03130227  RH  060%=      5-min Rain = 0
KCR1 160030Z 14008KT 31/23 A2971 RMK A01 T03130227  RH  060%=      5-min Rain = 0
KCR1 160031Z 14008KT 31/23 A2971 RMK A01 T03120227  RH  060%=      5-min Rain = 0
KCR1 160032Z 14008KT 31/23 A2971 RMK A01 T03120228  RH  061%=      5-min Rain = 0
KCR1 160033Z 14009KT 31/23 A2971 RMK A01 T03110227  RH  061%=      5-min Rain = 0
KCR1 160034Z 14009KT 31/23 A2971 RMK A01 T03110227  RH  061%=      5-min Rain = 0
KCR1 160035Z 14008KT 31/23 A2971 RMK A01 T03110227  RH  061%=      5-min Rain = 0
KCR1 160036Z 14008KT 31/23 A2971 RMK A01 T03110227  RH  061%=      5-min Rain = 0
KCR1 160037Z 14007KT 31/23 A2971 RMK A01 T03100228  RH  061%=      5-min Rain = 0
KCR1 160038Z 15007KT 31/23 A2971 RMK A01 T03100228  RH  062%=      5-min Rain = 0
KCR1 160039Z 15007KT 31/23 A2971 RMK A01 T03090228  RH  062%=      5-min Rain = 0
KCR1 160040Z 15008KT 31/23 A2972 RMK A01 T03090228  RH  062%=      5-min Rain = 0
KCR1 160041Z 14007KT 31/23 A2972 RMK A01 T03090228  RH  062%=      5-min Rain = 0
KCR1 160042Z 15008KT 31/23 A2972 RMK A01 T03080228  RH  062%=      5-min Rain = 0
KCR1 160043Z 15009KT 31/23 A2972 RMK A01 T03080227  RH  062%=      5-min Rain = 0
KCR1 160044Z 14008KT 31/23 A2972 RMK A01 T03080226  RH  062%=      5-min Rain = 0
KCR1 160045Z 15008KT 31/23 A2972 RMK A01 T03090227  RH  062%=      5-min Rain = 0
KCR1 160046Z 15009KT 31/23 A2972 RMK A01 T03090226  RH  061%=      5-min Rain = 0
KCR1 160047Z 15007KT 31/23 A2972 RMK A01 T03090226  RH  061%=      5-min Rain = 0
KCR1 160048Z 14007KT 31/23 A2972 RMK A01 T03090227  RH  062%=      5-min Rain = 0
KCR1 160049Z 14007KT 31/23 A2972 RMK A01 T03080227  RH  062%=      5-min Rain = 0
KCR1 160050Z 14008KT 31/23 A2972 RMK A01 T03080227  RH  062%=      5-min Rain = 0
KCR1 160051Z 14007KT 31/23 A2972 RMK A01 T03070227  RH  062%=      5-min Rain = 0
KCR1 160052Z 14006KT 31/23 A2972 RMK A01 T03070227  RH  063%=      5-min Rain = 0
KCR1 160053Z 14006KT 31/23 A2972 RMK A01 T03070228  RH  063%=      5-min Rain = 0
KCR1 160054Z 14007KT 31/23 A2972 RMK A01 T03060228  RH  063%=      5-min Rain = 0
KCR1 160055Z 13007KT 31/23 A2972 RMK A01 T03060228  RH  063%=      5-min Rain = 0
KCR1 160056Z 13007KT 31/23 A2972 RMK A01 T03050228  RH  063%=      5-min Rain = 0
KCR1 160057Z 13006KT 31/23 A2971 RMK A01 T03060228  RH  063%=      5-min Rain = 0
KCR1 160058Z 12007KT 31/23 A2971 RMK A01 T03050229  RH  064%=      5-min Rain = 0
KCR1 160059Z 12007KT 31/23 A2971 RMK A01 T03050228  RH  064%=      5-min Rain = 0
KCR1 160100Z 13006KT 31/23 A2971 RMK A01 T03050228  RH  063%=      5-min Rain = 0
KCR1 160101Z 13006KT 31/23 A2971 RMK A01 T03050228  RH  063%=      5-min Rain = 0
KCR1 160102Z 13006KT 31/23 A2971 RMK A01 T03050228  RH  064%=      5-min Rain = 0
KCR1 160103Z 12007KT 31/23 A2971 RMK A01 T03050228  RH  064%=      5-min Rain = 0
KCR1 160104Z 13006KT 30/23 A2971 RMK A01 T03040228  RH  064%=      5-min Rain = 0
KCR1 160105Z 13006KT 30/23 A2971 RMK A01 T03040227  RH  064%=      5-min Rain = 0
KCR1 160106Z 13007KT 30/23 A2971 RMK A01 T03040227  RH  063%=      5-min Rain = 0
KCR1 160107Z 13006KT 30/23 A2971 RMK A01 T03040227  RH  063%=      5-min Rain = 0
KCR1 160108Z 13007KT 30/23 A2971 RMK A01 T03040227  RH  063%=      5-min Rain = 0
KCR1 160109Z 12007KT 30/23 A2971 RMK A01 T03040227  RH  063%=      5-min Rain = 0
KCR1 160110Z 12007KT 30/23 A2971 RMK A01 T03040226  RH  063%=      5-min Rain = 0
KCR1 160111Z 13007KT 30/23 A2971 RMK A01 T03030226  RH  063%=      5-min Rain = 0
KCR1 160112Z 13007KT 30/23 A2971 RMK A01 T03040227  RH  063%=      5-min Rain = 0
KCR1 160113Z 13007KT 30/23 A2972 RMK A01 T03030227  RH  064%=      5-min Rain = 0
KCR1 160114Z 13008KT 30/23 A2972 RMK A01 T03030226  RH  064%=      5-min Rain = 0
KCR1 160115Z 13007KT 30/23 A2972 RMK A01 T03030226  RH  064%=      5-min Rain = 0
KCR1 160116Z 13007KT 30/23 A2972 RMK A01 T03030226  RH  064%=      5-min Rain = 0
KCR1 160117Z 13008KT 30/23 A2972 RMK A01 T03020226  RH  064%=      5-min Rain = 0
KCR1 160118Z 14008KT 30/23 A2972 RMK A01 T03020225  RH  063%=      5-min Rain = 0
KCR1 160119Z 13008KT 30/23 A2972 RMK A01 T03020225  RH  063%=      5-min Rain = 0
KCR1 160120Z 14008KT 30/23 A2972 RMK A01 T03020226  RH  064%=      5-min Rain = 0
KCR1 160121Z 14009KT 30/23 A2972 RMK A01 T03020226  RH  064%=      5-min Rain = 0
KCR1 160122Z 14009KT 30/23 A2971 RMK A01 T03020225  RH  064%=      5-min Rain = 0
KCR1 160123Z 14009KT 30/23 A2971 RMK A01 T03020225  RH  064%=      5-min Rain = 0
KCR1 160124Z 14009KT 30/23 A2971 RMK A01 T03020225  RH  063%=      5-min Rain = 0
KCR1 160125Z 13009KT 30/23 A2971 RMK A01 T03020225  RH  063%=      5-min Rain = 0
KCR1 160126Z 14008KT 30/23 A2971 RMK A01 T03020225  RH  063%=      5-min Rain = 0
KCR1 160127Z 14008KT 30/22 A2971 RMK A01 T03020224  RH  063%=      5-min Rain = 0
KCR1 160128Z 14008KT 30/22 A2971 RMK A01 T03020224  RH  063%=      5-min Rain = 0
KCR1 160129Z 14008KT 30/22 A2971 RMK A01 T03020224  RH  063%=      5-min Rain = 0
KCR1 160130Z 14008KT 30/22 A2972 RMK A01 T03020224  RH  063%=      5-min Rain = 0
KCR1 160131Z 14008KT 30/22 A2972 RMK A01 T03020224  RH  063%=      5-min Rain = 0
KCR1 160132Z 14007KT 30/22 A2972 RMK A01 T03020224  RH  063%=      5-min Rain = 0
KCR1 160133Z 14007KT 30/22 A2972 RMK A01 T03010224  RH  063%=      5-min Rain = 0
KCR1 160134Z 14007KT 30/22 A2971 RMK A01 T03010224  RH  063%=      5-min Rain = 0
KCR1 160135Z 14008KT 30/22 A2971 RMK A01 T03010223  RH  063%=      5-min Rain = 0
KCR1 160136Z 14008KT 30/22 A2971 RMK A01 T03010223  RH  063%=      5-min Rain = 0
KCR1 160137Z 14008KT 30/22 A2971 RMK A01 T03010223  RH  063%=      5-min Rain = 0
KCR1 160138Z 14007KT 30/22 A2971 RMK A01 T03010224  RH  063%=      5-min Rain = 0
KCR1 160139Z 15007KT 30/22 A2971 RMK A01 T03010224  RH  064%=      5-min Rain = 0
KCR1 160140Z 15006KT 30/23 A2971 RMK A01 T03000225  RH  064%=      5-min Rain = 0
KCR1 160141Z 16006KT 30/22 A2971 RMK A01 T02990224  RH  064%=      5-min Rain = 0
KCR1 160142Z 16006KT 30/22 A2972 RMK A01 T02990224  RH  064%=      5-min Rain = 0
KCR1 160143Z 18003KT 30/23 A2972 RMK A01 T02980225  RH  065%=      5-min Rain = 0
KCR1 160144Z 22003KT 30/23 A2973 RMK A01 T02980225  RH  065%=      5-min Rain = 0
KCR1 160145Z 29008KT 30/23 A2974 RMK A01 T02980225  RH  065%=      5-min Rain = 0
KCR1 160146Z 30013KT 30/22 A2974 RMK A01 T02980223  RH  064%=      5-min Rain = 0
KCR1 160147Z 30014G19KT 30/21 A2974 RMK A01 T02990206  RH  057%=      5-min Rain = 0
KCR1 160148Z 31011KT 30/20 A2974 RMK A01 T02990202  RH  056%=      5-min Rain = 0
KCR1 160149Z 32013KT 30/19 A2974 RMK A01 T02980187  RH  051%=      5-min Rain = 0
KCR1 160150Z 32013KT 30/16 A2975 RMK A01 T02960162  RH  045%=      5-min Rain = 0
KCR1 160151Z 32011KT 29/16 A2975 RMK A01 T02930159  RH  044%=      5-min Rain = 0
KCR1 160152Z 32013KT 29/15 A2975 RMK A01 T02910154  RH  043%=      5-min Rain = 0
KCR1 160153Z 32012KT 29/15 A2975 RMK A01 T02900153  RH  043%=      5-min Rain = 0
KCR1 160154Z 32009KT 29/15 A2975 RMK A01 T02890153  RH  044%=      5-min Rain = 0
KCR1 160155Z 31014G19KT 29/15 A2975 RMK A01 T02870152  RH  044%=      5-min Rain = 0
KCR1 160156Z 31014KT 29/15 A2975 RMK A01 T02870149  RH  043%=      5-min Rain = 0
KCR1 160157Z 31015G20KT 29/15 A2975 RMK A01 T02870148  RH  043%=      5-min Rain = 0
KCR1 160158Z 30012KT 29/15 A2975 RMK A01 T02870146  RH  042%=      5-min Rain = 0
KCR1 160159Z 28012KT 29/15 A2976 RMK A01 T02860147  RH  043%=      5-min Rain = 0
KCR1 160200Z 27010KT 29/15 A2977 RMK A01 T02850148  RH  043%=      5-min Rain = 0
KCR1 160201Z 26010KT 28/15 A2978 RMK A01 T02840148  RH  044%=      5-min Rain = 0
KCR1 160202Z 26016G21KT 28/14 A2979 RMK A01 T02830140  RH  041%=      5-min Rain = 0
KCR1 160203Z 26026KT 28/13 A2979 RMK A01 T02830132  RH  039%=      5-min Rain = 0
KCR1 160204Z 26019G26KT 28/13 A2979 RMK A01 T02800131  RH  040%=      5-min Rain = 0
KCR1 160205Z 25020G25KT 28/13 A298 RMK A01 T02770133  RH  041%=      5-min Rain = 0
KCR1 160206Z 25022G27KT 27/14 A298 RMK A01 T02710135  RH  043%=      5-min Rain = 0
KCR1 160207Z 26018KT 27/14 A2981 RMK A01 T02650138  RH  046%=      5-min Rain = 0
KCR1 160208Z 27016KT 26/14 A2981 RMK A01 T02590143  RH  049%=      5-min Rain = 0
KCR1 160209Z 27017G24KT 25/15 A2982 RMK A01 T02520151  RH  054%=      5-min Rain = 0
KCR1 160210Z 27015G23KT 24/16 A2982 RMK A01 T02420159  RH  060%=      5-min Rain = 0
KCR1 160211Z 27015KT 23/16 A2982 RMK A01 T02340160  RH  063%=      5-min Rain = 0
KCR1 160212Z 27011KT 23/16 A2982 RMK A01 T02290162  RH  066%=      5-min Rain = 0.02
KCR1 160213Z 27005G10KT 22/17 A2981 RMK A01 T02230165  RH  069%=      5-min Rain = 0.02
KCR1 160214Z 26002KT 22/17 A298 RMK A01 T02190166  RH  072%=      5-min Rain = 0.03
KCR1 160215Z 26005KT 22/17 A298 RMK A01 T02160168  RH  074%=      5-min Rain = 0.02
KCR1 160216Z 25010KT 21/17 A2981 RMK A01 T02130170  RH  076%=      5-min Rain = 0.02
KCR1 160217Z 26008KT 21/17 A2981 RMK A01 T02080172  RH  080%=      5-min Rain = 0.01
KCR1 160218Z 28006KT 21/17 A298 RMK A01 T02050170  RH  080%=      5-min Rain = 0.02
KCR1 160219Z 29006KT 20/17 A298 RMK A01 T02030171  RH  082%=      5-min Rain = 0.01
KCR1 160220Z 31006KT 20/17 A298 RMK A01 T02020173  RH  083%=      5-min Rain = 0.01
KCR1 160221Z 33005KT 20/17 A298 RMK A01 T02020174  RH  084%=      5-min Rain = 0
KCR1 160222Z 35005KT 20/17 A2979 RMK A01 T02020173  RH  083%=      5-min Rain = 0.01
KCR1 160223Z 34005KT 20/17 A2979 RMK A01 T02020174  RH  084%=      5-min Rain = 0.01
KCR1 160224Z 32005KT 20/17 A2979 RMK A01 T02020174  RH  084%=      5-min Rain = 0
KCR1 160225Z 34005KT 20/17 A2979 RMK A01 T02020173  RH  084%=      5-min Rain = 0.01
KCR1 160226Z 34004KT 20/18 A2979 RMK A01 T02020175  RH  084%=      5-min Rain = 0.01
KCR1 160227Z 35006KT 20/17 A2978 RMK A01 T02020173  RH  083%=      5-min Rain = 0
KCR1 160228Z 36006KT 20/17 A2978 RMK A01 T02020169  RH  081%=      5-min Rain = 0
KCR1 160229Z 01008KT 20/17 A2977 RMK A01 T02030172  RH  082%=      5-min Rain = 0
KCR1 160230Z 01009KT 20/17 A2977 RMK A01 T02030171  RH  081%=      5-min Rain = 0.01
KCR1 160231Z 01009KT 20/17 A2976 RMK A01 T02040170  RH  081%=      5-min Rain = 0
KCR1 160232Z 02010KT 21/17 A2976 RMK A01 T02050170  RH  080%=      5-min Rain = 0
KCR1 160233Z 02012KT 21/17 A2976 RMK A01 T02060174  RH  082%=      5-min Rain = 0
KCR1 160234Z 02012KT 21/18 A2975 RMK A01 T02060175  RH  083%=      5-min Rain = 0
KCR1 160235Z 03012KT 21/18 A2975 RMK A01 T02050178  RH  084%=      5-min Rain = 0
KCR1 160236Z 03011KT 21/18 A2975 RMK A01 T02050175  RH  083%=      5-min Rain = 0
KCR1 160237Z 03009KT 21/17 A2975 RMK A01 T02060173  RH  081%=      5-min Rain = 0
KCR1 160238Z 02009KT 21/17 A2975 RMK A01 T02070172  RH  080%=      5-min Rain = 0.01
KCR1 160239Z 02008KT 21/17 A2976 RMK A01 T02070173  RH  081%=      5-min Rain = 0
KCR1 160240Z 03007KT 21/18 A2976 RMK A01 T02060177  RH  083%=      5-min Rain = 0
KCR1 160241Z 05006KT 21/18 A2976 RMK A01 T02050178  RH  084%=      5-min Rain = 0
KCR1 160242Z 07005KT 21/18 A2976 RMK A01 T02050178  RH  084%=      5-min Rain = 0
KCR1 160243Z 09005KT 21/18 A2976 RMK A01 T02050180  RH  085%=      5-min Rain = 0
KCR1 160244Z 08005KT 21/18 A2977 RMK A01 T02060183  RH  087%=      5-min Rain = 0
KCR1 160245Z 07003KT 21/18 A2978 RMK A01 T02050181  RH  086%=      5-min Rain = 0
KCR1 160246Z 05001KT 21/18 A298 RMK A01 T02060183  RH  087%=      5-min Rain = 0
KCR1 160247Z 17000KT 21/18 A2981 RMK A01 T02060183  RH  087%=      5-min Rain = 0
KCR1 160248Z 18005KT 21/18 A2981 RMK A01 T02060182  RH  086%=      5-min Rain = 0
KCR1 160249Z 19007KT 21/18 A2981 RMK A01 T02070184  RH  087%=      5-min Rain = 0
KCR1 160250Z 18008KT 21/18 A2981 RMK A01 T02060184  RH  087%=      5-min Rain = 0
KCR1 160251Z 17006KT 20/18 A2981 RMK A01 T02040178  RH  085%=      5-min Rain = 0
KCR1 160252Z 12002KT 20/18 A298 RMK A01 T02020175  RH  084%=      5-min Rain = 0
KCR1 160253Z 12002KT 20/17 A298 RMK A01 T02010172  RH  083%=      5-min Rain = 0
KCR1 160254Z 10001KT 20/17 A298 RMK A01 T02010174  RH  084%=      5-min Rain = 0
KCR1 160255Z 08002KT 20/18 A298 RMK A01 T02010176  RH  085%=      5-min Rain = 0
KCR1 160256Z 12002KT 20/18 A298 RMK A01 T02020179  RH  086%=      5-min Rain = 0
KCR1 160257Z 13003KT 20/18 A298 RMK A01 T02030180  RH  087%=      5-min Rain = 0
KCR1 160258Z 12004KT 20/18 A298 RMK A01 T02040182  RH  087%=      5-min Rain = 0
KCR1 160259Z 10004KT 21/18 A2979 RMK A01 T02050179  RH  085%=      5-min Rain = 0
KCR1 160300Z 09005KT 21/18 A2979 RMK A01 T02060180  RH  085%=      5-min Rain = 0
KCR1 160301Z 08006KT 21/18 A2979 RMK A01 T02070180  RH  084%=      5-min Rain = 0
KCR1 160302Z 07005KT 21/18 A2978 RMK A01 T02080181  RH  085%=      5-min Rain = 0
KCR1 160303Z 07003KT 21/18 A2978 RMK A01 T02080182  RH  085%=      5-min Rain = 0
KCR1 160304Z 03002KT 21/18 A2978 RMK A01 T02080182  RH  085%=      5-min Rain = 0
KCR1 160305Z 02002KT 21/18 A2978 RMK A01 T02080184  RH  086%=      5-min Rain = 0
KCR1 160306Z 01003KT 21/18 A2978 RMK A01 T02080183  RH  086%=      5-min Rain = 0
KCR1 160307Z 34003KT 21/18 A2978 RMK A01 T02080184  RH  086%=      5-min Rain = 0
KCR1 160308Z 29002KT 21/18 A2978 RMK A01 T02080184  RH  086%=      5-min Rain = 0
KCR1 160309Z 26003KT 21/18 A2978 RMK A01 T02080184  RH  086%=      5-min Rain = 0
KCR1 160310Z 26003KT 21/19 A2978 RMK A01 T02080185  RH  086%=      5-min Rain = 0
KCR1 160311Z 26003KT 21/18 A2978 RMK A01 T02080184  RH  086%=      5-min Rain = 0
KCR1 160312Z 25002KT 21/18 A2978 RMK A01 T02080184  RH  086%=      5-min Rain = 0
KCR1 160313Z 25001KT 21/19 A2977 RMK A01 T02080186  RH  087%=      5-min Rain = 0
KCR1 160314Z 25000KT 21/18 A2977 RMK A01 T02070184  RH  087%=      5-min Rain = 0
KCR1 160315Z 10000KT 21/19 A2977 RMK A01 T02070187  RH  088%=      5-min Rain = 0
KCR1 160316Z 05002KT 21/19 A2976 RMK A01 T02070187  RH  088%=      5-min Rain = 0
KCR1 160317Z 03002KT 21/18 A2976 RMK A01 T02070184  RH  087%=      5-min Rain = 0
KCR1 160318Z 08001KT 21/18 A2976 RMK A01 T02070184  RH  086%=      5-min Rain = 0
KCR1 160319Z 09001KT 21/19 A2976 RMK A01 T02080185  RH  087%=      5-min Rain = 0
KCR1 160320Z 15003KT 21/18 A2976 RMK A01 T02080183  RH  086%=      5-min Rain = 0
KCR1 160321Z 17005KT 21/19 A2977 RMK A01 T02090185  RH  086%=      5-min Rain = 0
KCR1 160322Z 19007KT 21/19 A2977 RMK A01 T02090189  RH  088%=      5-min Rain = 0
KCR1 160323Z 18007KT 21/19 A2977 RMK A01 T02090187  RH  087%=      5-min Rain = 0
KCR1 160324Z 18008KT 21/19 A2978 RMK A01 T02090186  RH  087%=      5-min Rain = 0
KCR1 160325Z 17007KT 21/19 A2979 RMK A01 T02090188  RH  088%=      5-min Rain = 0
KCR1 160326Z 17005KT 21/19 A2979 RMK A01 T02090189  RH  088%=      5-min Rain = 0
KCR1 160327Z 15004KT 21/19 A2979 RMK A01 T02080189  RH  089%=      5-min Rain = 0
KCR1 160328Z 12004KT 21/19 A2979 RMK A01 T02070187  RH  088%=      5-min Rain = 0
KCR1 160329Z 12003KT 21/18 A2979 RMK A01 T02070184  RH  087%=      5-min Rain = 0
KCR1 160330Z 10003KT 21/18 A2979 RMK A01 T02060183  RH  086%=      5-min Rain = 0
KCR1 160331Z 08003KT 21/18 A2979 RMK A01 T02060184  RH  087%=      5-min Rain = 0
KCR1 160332Z 05001KT 21/18 A2978 RMK A01 T02070184  RH  087%=      5-min Rain = 0
KCR1 160333Z 00000KT 21/18 A2978 RMK A01 T02060184  RH  087%=      5-min Rain = 0
KCR1 160334Z 31000KT 21/18 A2978 RMK A01 T02060183  RH  087%=      5-min Rain = 0
KCR1 160335Z 28003KT 21/18 A2978 RMK A01 T02070182  RH  086%=      5-min Rain = 0
KCR1 160336Z 27006KT 21/19 A2979 RMK A01 T02070187  RH  088%=      5-min Rain = 0
KCR1 160337Z 27005KT 21/19 A2979 RMK A01 T02080190  RH  090%=      5-min Rain = 0
KCR1 160338Z 27005KT 21/19 A2979 RMK A01 T02080190  RH  090%=      5-min Rain = 0
KCR1 160339Z 26004KT 21/19 A2979 RMK A01 T02070190  RH  090%=      5-min Rain = 0
KCR1 160340Z 27004KT 21/19 A2979 RMK A01 T02060189  RH  090%=      5-min Rain = 0
KCR1 160341Z 27004KT 21/19 A2979 RMK A01 T02060190  RH  091%=      5-min Rain = 0
KCR1 160342Z 29003KT 21/19 A2979 RMK A01 T02060191  RH  091%=      5-min Rain = 0.01
KCR1 160343Z 30002KT 21/19 A298 RMK A01 T02050191  RH  091%=      5-min Rain = 0
KCR1 160344Z 32001KT 21/19 A298 RMK A01 T02050190  RH  091%=      5-min Rain = 0
KCR1 160345Z 27001KT 21/19 A298 RMK A01 T02050189  RH  090%=      5-min Rain = 0
KCR1 160346Z 31001KT 21/19 A298 RMK A01 T02050189  RH  090%=      5-min Rain = 0
KCR1 160347Z 35002KT 21/19 A298 RMK A01 T02050189  RH  091%=      5-min Rain = 0
KCR1 160348Z 03002KT 21/19 A298 RMK A01 T02060189  RH  090%=      5-min Rain = 0
KCR1 160349Z 07004KT 21/19 A298 RMK A01 T02070187  RH  089%=      5-min Rain = 0
KCR1 160350Z 08006KT 21/19 A298 RMK A01 T02080193  RH  091%=      5-min Rain = 0
KCR1 160351Z 08006KT 21/20 A2981 RMK A01 T02080195  RH  092%=      5-min Rain = 0
KCR1 160352Z 09003KT 21/20 A2981 RMK A01 T02080195  RH  092%=      5-min Rain = 0
KCR1 160353Z 22005G10KT 21/19 A2982 RMK A01 T02080194  RH  091%=      5-min Rain = 0
KCR1 160354Z 22014KT 21/19 A2984 RMK A01 T02080194  RH  092%=      5-min Rain = 0
KCR1 160355Z 21017KT 21/19 A2984 RMK A01 T02080194  RH  091%=      5-min Rain = 0
KCR1 160356Z 21015G20KT 21/18 A2984 RMK A01 T02070183  RH  086%=      5-min Rain = 0
KCR1 160357Z 21012KT 21/18 A2984 RMK A01 T02100181  RH  084%=      5-min Rain = 0
KCR1 160358Z 21012KT 21/18 A2984 RMK A01 T02110181  RH  083%=      5-min Rain = 0
KCR1 160359Z 19009KT 21/18 A2983 RMK A01 T02110181  RH  083%=      5-min Rain = 0
KCR1 160400Z 20006KT 21/18 A2983 RMK A01 T02100181  RH  083%=      5-min Rain = 0
KCR1 160401Z 18007KT 21/18 A2982 RMK A01 T02100175  RH  081%=      5-min Rain = 0
KCR1 160402Z 16006KT 21/18 A2981 RMK A01 T02110176  RH  080%=      5-min Rain = 0
KCR1 160403Z 13008KT 21/18 A298 RMK A01 T02110181  RH  083%=      5-min Rain = 0.01
KCR1 160404Z 13008KT 21/18 A2979 RMK A01 T02080184  RH  086%=      5-min Rain = 0
KCR1 160405Z 12008KT 21/18 A2979 RMK A01 T02060182  RH  086%=      5-min Rain = 0
KCR1 160406Z 11006KT 21/18 A2978 RMK A01 T02050179  RH  085%=      5-min Rain = 0.01
KCR1 160407Z 02003KT 21/18 A2977 RMK A01 T02050178  RH  084%=      5-min Rain = 0.01
KCR1 160408Z 34004KT 21/18 A2976 RMK A01 T02060179  RH  084%=      5-min Rain = 0.01
KCR1 160409Z 35004KT 21/18 A2976 RMK A01 T02070177  RH  083%=      5-min Rain = 0
KCR1 160410Z 35004KT 21/17 A2975 RMK A01 T02100174  RH  080%=      5-min Rain = 0
KCR1 160411Z 32003KT 21/17 A2975 RMK A01 T02120174  RH  079%=      5-min Rain = 0
KCR1 160412Z 31003KT 21/18 A2975 RMK A01 T02140180  RH  081%=      5-min Rain = 0
KCR1 160413Z 00001KT 22/18 A2975 RMK A01 T02150178  RH  080%=      5-min Rain = 0
KCR1 160414Z 07005KT 22/18 A2974 RMK A01 T02150180  RH  080%=      5-min Rain = 0
KCR1 160415Z 06006KT 21/18 A2974 RMK A01 T02140182  RH  082%=      5-min Rain = 0
KCR1 160416Z 05005KT 21/18 A2975 RMK A01 T02130180  RH  081%=      5-min Rain = 0
KCR1 160417Z 05004KT 21/18 A2975 RMK A01 T02130179  RH  081%=      5-min Rain = 0
KCR1 160418Z 03002KT 21/18 A2976 RMK A01 T02130181  RH  082%=      5-min Rain = 0
KCR1 160419Z 26003KT 21/18 A2977 RMK A01 T02130181  RH  082%=      5-min Rain = 0
KCR1 160420Z 25006KT 21/18 A2978 RMK A01 T02140181  RH  082%=      5-min Rain = 0
KCR1 160421Z 23005KT 21/18 A2979 RMK A01 T02130182  RH  082%=      5-min Rain = 0
KCR1 160422Z 21004KT 21/18 A2979 RMK A01 T02120182  RH  083%=      5-min Rain = 0
KCR1 160423Z 18004KT 21/18 A298 RMK A01 T02110181  RH  083%=      5-min Rain = 0
KCR1 160424Z 19006KT 21/18 A2981 RMK A01 T02110182  RH  083%=      5-min Rain = 0
KCR1 160425Z 19007KT 21/18 A2982 RMK A01 T02110181  RH  083%=      5-min Rain = 0
KCR1 160426Z 19007KT 21/18 A2983 RMK A01 T02110184  RH  085%=      5-min Rain = 0
KCR1 160427Z 19008KT 21/18 A2984 RMK A01 T02100183  RH  085%=      5-min Rain = 0
KCR1 160428Z 20009KT 21/18 A2985 RMK A01 T02090183  RH  085%=      5-min Rain = 0
KCR1 160429Z 21015G23KT 21/18 A2986 RMK A01 T02090179  RH  083%=      5-min Rain = 0
KCR1 160430Z 20014KT 21/17 A2986 RMK A01 T02090174  RH  081%=      5-min Rain = 0
KCR1 160431Z 19012KT 21/18 A2985 RMK A01 T02080175  RH  081%=      5-min Rain = 0
KCR1 160432Z 18007KT 21/18 A2985 RMK A01 T02060175  RH  082%=      5-min Rain = 0
KCR1 160433Z 16007KT 21/18 A2984 RMK A01 T02050176  RH  083%=      5-min Rain = 0
KCR1 160434Z 15008KT 20/18 A2983 RMK A01 T02040175  RH  084%=      5-min Rain = 0
KCR1 160435Z 14008KT 20/18 A2983 RMK A01 T02030175  RH  084%=      5-min Rain = 0
KCR1 160436Z 13006KT 20/18 A2983 RMK A01 T02030176  RH  084%=      5-min Rain = 0
KCR1 160437Z 13008KT 20/18 A2983 RMK A01 T02020178  RH  086%=      5-min Rain = 0
KCR1 160438Z 12010KT 20/18 A2984 RMK A01 T02020179  RH  087%=      5-min Rain = 0
KCR1 160439Z 13010KT 20/18 A2984 RMK A01 T02010180  RH  088%=      5-min Rain = 0
KCR1 160440Z 13010KT 20/18 A2984 RMK A01 T02010181  RH  088%=      5-min Rain = 0
KCR1 160441Z 14009KT 20/18 A2984 RMK A01 T02010180  RH  088%=      5-min Rain = 0
KCR1 160442Z 14008KT 20/18 A2985 RMK A01 T02010181  RH  088%=      5-min Rain = 0
KCR1 160443Z 15008KT 20/18 A2985 RMK A01 T02010182  RH  089%=      5-min Rain = 0
KCR1 160444Z 14010KT 20/18 A2985 RMK A01 T02010182  RH  089%=      5-min Rain = 0
KCR1 160445Z 14010KT 20/18 A2984 RMK A01 T02010181  RH  088%=      5-min Rain = 0
KCR1 160446Z 12009KT 20/18 A2983 RMK A01 T02010181  RH  088%=      5-min Rain = 0
KCR1 160447Z 12011KT 20/18 A2982 RMK A01 T02010181  RH  088%=      5-min Rain = 0
KCR1 160448Z 11011KT 20/18 A2982 RMK A01 T02000177  RH  086%=      5-min Rain = 0
KCR1 160449Z 11011KT 20/18 A2981 RMK A01 T02010176  RH  086%=      5-min Rain = 0
KCR1 160450Z 11010KT 20/17 A2982 RMK A01 T02010174  RH  085%=      5-min Rain = 0
KCR1 160451Z 11009KT 20/17 A2982 RMK A01 T02010174  RH  085%=      5-min Rain = 0
KCR1 160452Z 12007KT 20/17 A2983 RMK A01 T02010174  RH  084%=      5-min Rain = 0
KCR1 160453Z 12006KT 20/17 A2983 RMK A01 T02010174  RH  085%=      5-min Rain = 0
KCR1 160454Z 13006KT 20/18 A2984 RMK A01 T02000175  RH  085%=      5-min Rain = 0
KCR1 160455Z 13008KT 20/18 A2984 RMK A01 T02000175  RH  085%=      5-min Rain = 0
KCR1 160456Z 14007KT 20/18 A2984 RMK A01 T02010175  RH  085%=      5-min Rain = 0
KCR1 160457Z 14008KT 20/18 A2984 RMK A01 T02000176  RH  086%=      5-min Rain = 0
KCR1 160458Z 14011KT 20/18 A2984 RMK A01 T02000176  RH  086%=      5-min Rain = 0
KCR1 160459Z 15011KT 20/18 A2984 RMK A01 T01990176  RH  086%=      5-min Rain = 0

Page generated in 0.0706 seconds.